| time (UTC) | temp F | wind direction | speed knots | gust knots | rain 1hr in | rain 24hr in | rain mn in | humidity % | barometer mb |
| 20260507224504 | 59 | 342 | 0.9 | 2.6 | 0.00 | 0.03 | 0.00 | 79 | 1014.0 |
| 20260507224403 | 59 | 338 | 0.9 | 2.6 | 0.00 | 0.03 | 0.00 | 79 | 1014.0 |
| 20260507224303 | 59 | 332 | 0.9 | 2.6 | 0.00 | 0.03 | 0.00 | 79 | 1014.1 |
| 20260507224203 | 59 | 332 | 0.9 | 2.6 | 0.00 | 0.03 | 0.00 | 79 | 1014.1 |
| 20260507224103 | 60 | 330 | 0.9 | 2.6 | 0.00 | 0.03 | 0.00 | 79 | 1014.1 |
| 20260507224003 | 60 | 331 | 0.9 | 2.6 | 0.00 | 0.03 | 0.00 | 78 | 1014.0 |
| 20260507223903 | 60 | 330 | 0.9 | 2.6 | 0.00 | 0.03 | 0.00 | 78 | 1014.0 |
| 20260507223803 | 60 | 329 | 0.9 | 2.6 | 0.00 | 0.03 | 0.00 | 78 | 1014.0 |
| 20260507223703 | 60 | 325 | 0.0 | 2.6 | 0.00 | 0.03 | 0.00 | 78 | 1014.0 |
| 20260507223603 | 60 | 318 | 0.0 | 2.6 | 0.00 | 0.03 | 0.00 | 77 | 1014.0 |
| 20260507223503 | 60 | 302 | 0.0 | 1.7 | 0.00 | 0.03 | 0.00 | 77 | 1014.1 |
| 20260507223403 | 60 | 292 | 0.0 | 1.7 | 0.00 | 0.03 | 0.00 | 77 | 1014.0 |
| 20260507223303 | 60 | 292 | 0.0 | 1.7 | 0.00 | 0.03 | 0.00 | 77 | 1014.0 |
| 20260507223203 | 60 | 292 | 0.0 | 1.7 | 0.00 | 0.03 | 0.00 | 77 | 1014.0 |
| 20260507223103 | 60 | 292 | 0.0 | 1.7 | 0.00 | 0.03 | 0.00 | 77 | 1014.0 |
| 20260507223003 | 60 | 292 | 0.0 | 1.7 | 0.00 | 0.03 | 0.00 | 76 | 1014.1 |
| 20260507222903 | 60 | 292 | 0.0 | 1.7 | 0.00 | 0.03 | 0.00 | 76 | 1014.1 |
| 20260507222803 | 60 | 295 | 0.0 | 1.7 | 0.00 | 0.03 | 0.00 | 76 | 1014.1 |
| 20260507222703 | 60 | 294 | 0.0 | 1.7 | 0.00 | 0.03 | 0.00 | 76 | 1014.1 |
| 20260507222604 | 60 | 294 | 0.0 | 1.7 | 0.00 | 0.03 | 0.00 | 76 | 1014.1 |
| 20260507222503 | 60 | 293 | 0.0 | 1.7 | 0.00 | 0.03 | 0.00 | 76 | 1014.1 |
| 20260507222403 | 60 | 294 | 0.0 | 1.7 | 0.00 | 0.03 | 0.00 | 76 | 1014.1 |
| 20260507222306 | 60 | 293 | 0.0 | 1.7 | 0.00 | 0.03 | 0.00 | 76 | 1014.1 |
| 20260507222203 | 60 | 294 | 0.0 | 1.7 | 0.00 | 0.03 | 0.00 | 76 | 1014.1 |
| 20260507222103 | 60 | 293 | 0.0 | 1.7 | 0.00 | 0.03 | 0.00 | 76 | 1014.1 |
| 20260507222003 | 60 | 293 | 0.0 | 1.7 | 0.00 | 0.03 | 0.00 | 76 | 1014.1 |
| 20260507221903 | 60 | 293 | 0.0 | 1.7 | 0.00 | 0.03 | 0.00 | 76 | 1014.1 |
| 20260507221803 | 60 | 285 | 0.0 | 1.7 | 0.00 | 0.03 | 0.00 | 76 | 1014.1 |
| 20260507221703 | 60 | 282 | 0.0 | 0.9 | 0.00 | 0.03 | 0.00 | 76 | 1014.1 |
| 20260507221603 | 60 | 282 | 0.0 | 0.9 | 0.00 | 0.03 | 0.00 | 76 | 1014.0 |
| 20260507221503 | 60 | 282 | 0.0 | 0.9 | 0.00 | 0.03 | 0.00 | 76 | 1014.0 |
| 20260507221403 | 60 | 283 | 0.0 | 0.9 | 0.00 | 0.03 | 0.00 | 76 | 1014.1 |
| 20260507221303 | 60 | 283 | 0.0 | 0.9 | 0.00 | 0.03 | 0.00 | 76 | 1014.1 |
| 20260507221203 | 60 | 284 | 0.0 | 1.7 | 0.00 | 0.03 | 0.00 | 76 | 1014.1 |
| 20260507221103 | 60 | 285 | 0.0 | 1.7 | 0.00 | 0.03 | 0.00 | 76 | 1014.1 |
| 20260507221003 | 60 | 285 | 0.0 | 1.7 | 0.00 | 0.03 | 0.00 | 76 | 1014.1 |
| 20260507220904 | 60 | 285 | 0.0 | 1.7 | 0.00 | 0.03 | 0.00 | 76 | 1014.1 |
| 20260507220803 | 60 | 286 | 0.0 | 1.7 | 0.00 | 0.03 | 0.00 | 76 | 1014.0 |
| 20260507220703 | 60 | 286 | 0.0 | 1.7 | 0.00 | 0.03 | 0.00 | 76 | 1014.0 |
| 20260507220603 | 60 | 281 | 0.0 | 1.7 | 0.00 | 0.03 | 0.00 | 76 | 1014.0 |
| 20260507220503 | 60 | 281 | 0.0 | 1.7 | 0.00 | 0.03 | 0.00 | 76 | 1014.0 |
| 20260507220403 | 60 | 281 | 0.0 | 1.7 | 0.00 | 0.03 | 0.00 | 76 | 1014.0 |
| 20260507220303 | 60 | 281 | 0.0 | 1.7 | 0.00 | 0.03 | 0.00 | 76 | 1014.0 |
| 20260507220203 | 60 | 275 | 0.0 | 0.9 | 0.00 | 0.03 | 0.00 | 76 | 1014.0 |
| 20260507220031 | 60 | 243 | 0.0 | 0.9 | 0.00 | 0.03 | 0.00 | 76 | 1014.0 |
| 20260507215903 | 60 | 243 | 0.0 | 0.9 | 0.00 | 0.03 | 0.03 | 76 | 1014.0 |
| 20260507215804 | 60 | 243 | 0.0 | 0.9 | 0.00 | 0.03 | 0.03 | 76 | 1014.0 |
| 20260507215703 | 60 | 243 | 0.0 | 0.9 | 0.00 | 0.03 | 0.03 | 76 | 1014.0 |
| 20260507215603 | 60 | 0 | 0.0 | 0.0 | 0.00 | 0.03 | 0.03 | 76 | 1014.0 |
| 20260507215504 | 60 | 0 | 0.0 | 0.0 | 0.00 | 0.03 | 0.03 | 76 | 1014.0 |
| 20260507215403 | 60 | 0 | 0.0 | 0.0 | 0.00 | 0.03 | 0.03 | 76 | 1014.0 |
| 20260507215306 | 60 | 0 | 0.0 | 0.0 | 0.00 | 0.03 | 0.03 | 76 | 1014.0 |
| 20260507215203 | 60 | 0 | 0.0 | 0.0 | 0.00 | 0.03 | 0.03 | 76 | 1014.0 |
| 20260507215103 | 60 | 0 | 0.0 | 0.0 | 0.00 | 0.03 | 0.03 | 76 | 1014.0 |
| 20260507215004 | 60 | 0 | 0.0 | 0.0 | 0.00 | 0.03 | 0.03 | 76 | 1014.0 |
| 20260507214903 | 60 | 0 | 0.0 | 0.0 | 0.00 | 0.03 | 0.03 | 76 | 1014.0 |
| 20260507214803 | 60 | 0 | 0.0 | 0.0 | 0.00 | 0.03 | 0.03 | 76 | 1014.1 |
| 20260507214703 | 60 | 0 | 0.0 | 0.0 | 0.00 | 0.03 | 0.03 | 76 | 1014.1 |
| 20260507214603 | 60 | 0 | 0.0 | 0.0 | 0.00 | 0.03 | 0.03 | 76 | 1014.1 |
| 20260507214503 | 60 | 0 | 0.0 | 0.0 | 0.00 | 0.03 | 0.03 | 76 | 1014.1 |
| 20260507214403 | 60 | 0 | 0.0 | 0.0 | 0.00 | 0.03 | 0.03 | 76 | 1014.1 |
| 20260507214303 | 60 | 0 | 0.0 | 0.0 | 0.00 | 0.03 | 0.03 | 76 | 1014.0 |
| 20260507214203 | 60 | 0 | 0.0 | 0.0 | 0.00 | 0.03 | 0.03 | 76 | 1014.0 |
| 20260507214103 | 60 | 0 | 0.0 | 0.0 | 0.00 | 0.03 | 0.03 | 76 | 1014.0 |
| 20260507214003 | 60 | 0 | 0.0 | 0.0 | 0.00 | 0.03 | 0.03 | 76 | 1014.0 |
| 20260507213903 | 60 | 0 | 0.0 | 0.0 | 0.00 | 0.03 | 0.03 | 76 | 1014.0 |
| 20260507213803 | 60 | 0 | 0.0 | 0.0 | 0.00 | 0.03 | 0.03 | 76 | 1014.0 |
| 20260507213703 | 60 | 0 | 0.0 | 0.0 | 0.00 | 0.03 | 0.03 | 76 | 1014.0 |
| 20260507213603 | 60 | 243 | 0.0 | 0.9 | 0.00 | 0.03 | 0.03 | 76 | 1013.9 |
| 20260507213503 | 60 | 243 | 0.0 | 0.9 | 0.00 | 0.03 | 0.03 | 75 | 1014.0 |
| 20260507213404 | 61 | 243 | 0.0 | 0.9 | 0.00 | 0.03 | 0.03 | 75 | 1014.0 |
| 20260507213303 | 61 | 243 | 0.0 | 0.9 | 0.00 | 0.03 | 0.03 | 75 | 1014.0 |
| 20260507213203 | 61 | 243 | 0.0 | 0.9 | 0.00 | 0.03 | 0.03 | 75 | 1014.0 |
| 20260507213103 | 61 | 243 | 0.0 | 0.9 | 0.00 | 0.03 | 0.03 | 75 | 1013.9 |
| 20260507213003 | 61 | 243 | 0.0 | 0.9 | 0.00 | 0.03 | 0.03 | 75 | 1013.9 |
| 20260507212905 | 61 | 243 | 0.0 | 0.9 | 0.00 | 0.03 | 0.03 | 75 | 1013.9 |
| 20260507212803 | 61 | 243 | 0.0 | 0.9 | 0.00 | 0.03 | 0.03 | 75 | 1013.9 |
| 20260507212703 | 61 | 243 | 0.0 | 0.9 | 0.00 | 0.03 | 0.03 | 75 | 1013.9 |
| 20260507212603 | 61 | 244 | 0.0 | 0.9 | 0.00 | 0.03 | 0.03 | 75 | 1014.0 |
| 20260507212503 | 61 | 0 | 0.0 | 0.0 | 0.00 | 0.03 | 0.03 | 75 | 1013.9 |
| 20260507212403 | 61 | 0 | 0.0 | 0.0 | 0.00 | 0.03 | 0.03 | 75 | 1013.9 |
| 20260507212306 | 61 | 251 | 0.0 | 0.9 | 0.00 | 0.03 | 0.03 | 75 | 1013.9 |
| 20260507212203 | 61 | 232 | 0.0 | 0.9 | 0.00 | 0.03 | 0.03 | 75 | 1013.9 |
| 20260507212103 | 61 | 232 | 0.0 | 0.9 | 0.00 | 0.03 | 0.03 | 75 | 1013.8 |
| 20260507212003 | 61 | 232 | 0.0 | 0.9 | 0.00 | 0.03 | 0.03 | 74 | 1013.9 |
| 20260507211903 | 61 | 232 | 0.0 | 0.9 | 0.00 | 0.03 | 0.03 | 74 | 1013.9 |
| 20260507211803 | 61 | 232 | 0.0 | 0.9 | 0.00 | 0.03 | 0.03 | 74 | 1013.9 |
| 20260507211703 | 61 | 232 | 0.0 | 0.9 | 0.00 | 0.03 | 0.03 | 74 | 1013.9 |
| 20260507211603 | 61 | 232 | 0.0 | 0.9 | 0.00 | 0.03 | 0.03 | 74 | 1013.9 |
| 20260507211503 | 61 | 229 | 0.0 | 1.7 | 0.00 | 0.03 | 0.03 | 74 | 1013.9 |
| 20260507211403 | 61 | 227 | 0.0 | 1.7 | 0.00 | 0.03 | 0.03 | 74 | 1013.9 |
| 20260507211303 | 61 | 226 | 0.0 | 2.6 | 0.00 | 0.03 | 0.03 | 74 | 1013.8 |
| 20260507211203 | 61 | 225 | 0.0 | 2.6 | 0.00 | 0.03 | 0.03 | 74 | 1013.8 |
| 20260507211104 | 62 | 225 | 0.9 | 2.6 | 0.00 | 0.03 | 0.03 | 74 | 1013.8 |
| 20260507211003 | 62 | 225 | 0.9 | 2.6 | 0.00 | 0.03 | 0.03 | 74 | 1013.9 |
| 20260507210903 | 62 | 225 | 0.9 | 2.6 | 0.00 | 0.03 | 0.03 | 74 | 1013.9 |
| 20260507210803 | 62 | 225 | 0.9 | 2.6 | 0.00 | 0.03 | 0.03 | 74 | 1013.9 |
| 20260507210703 | 62 | 223 | 0.9 | 2.6 | 0.00 | 0.03 | 0.03 | 74 | 1013.8 |
| 20260507210603 | 62 | 222 | 0.9 | 2.6 | 0.00 | 0.03 | 0.03 | 74 | 1013.8 |
| 20260507210504 | 62 | 221 | 0.9 | 2.6 | 0.00 | 0.03 | 0.03 | 73 | 1013.9 |
| 20260507210403 | 62 | 220 | 0.9 | 2.6 | 0.00 | 0.03 | 0.03 | 73 | 1013.9 |
| 20260507210303 | 62 | 219 | 0.9 | 2.6 | 0.00 | 0.03 | 0.03 | 73 | 1013.9 |
| 20260507210203 | 62 | 220 | 0.9 | 2.6 | 0.00 | 0.03 | 0.03 | 73 | 1013.8 |
| 20260507210103 | 62 | 221 | 1.7 | 2.6 | 0.00 | 0.03 | 0.03 | 73 | 1013.8 |
| 20260507210005 | 62 | 222 | 1.7 | 2.6 | 0.00 | 0.03 | 0.03 | 73 | 1013.9 |
| 20260507205904 | 62 | 222 | 1.7 | 2.6 | 0.00 | 0.03 | 0.03 | 73 | 1013.9 |
| 20260507205803 | 62 | 222 | 1.7 | 2.6 | 0.00 | 0.03 | 0.03 | 73 | 1013.9 |
| 20260507205703 | 62 | 223 | 1.7 | 2.6 | 0.00 | 0.03 | 0.03 | 73 | 1013.9 |
| 20260507205603 | 62 | 224 | 1.7 | 2.6 | 0.00 | 0.03 | 0.03 | 73 | 1013.9 |
| 20260507205503 | 62 | 225 | 1.7 | 2.6 | 0.00 | 0.03 | 0.03 | 73 | 1013.9 |
| 20260507205403 | 62 | 228 | 1.7 | 2.6 | 0.00 | 0.03 | 0.03 | 73 | 1013.9 |
| 20260507205306 | 62 | 229 | 1.7 | 2.6 | 0.00 | 0.03 | 0.03 | 73 | 1013.9 |
| 20260507205203 | 62 | 227 | 1.7 | 2.6 | 0.00 | 0.03 | 0.03 | 73 | 1013.9 |
| 20260507205103 | 62 | 226 | 1.7 | 2.6 | 0.00 | 0.03 | 0.03 | 73 | 1013.9 |
| 20260507205003 | 62 | 224 | 0.9 | 2.6 | 0.00 | 0.03 | 0.03 | 73 | 1013.9 |
| 20260507204903 | 62 | 221 | 1.7 | 3.5 | 0.00 | 0.03 | 0.03 | 73 | 1013.8 |
| 20260507204803 | 62 | 219 | 1.7 | 3.5 | 0.00 | 0.03 | 0.03 | 73 | 1013.8 |
| 20260507204703 | 62 | 218 | 1.7 | 3.5 | 0.00 | 0.03 | 0.03 | 73 | 1013.8 |
| 20260507204603 | 62 | 217 | 1.7 | 3.5 | 0.00 | 0.03 | 0.03 | 73 | 1013.7 |
| 20260507204503 | 62 | 215 | 1.7 | 3.5 | 0.00 | 0.03 | 0.03 | 73 | 1013.7 |
| 20260507204403 | 62 | 214 | 1.7 | 3.5 | 0.00 | 0.03 | 0.03 | 73 | 1013.8 |
| 20260507204303 | 62 | 213 | 1.7 | 3.5 | 0.00 | 0.03 | 0.03 | 73 | 1013.8 |
| 20260507204203 | 62 | 215 | 1.7 | 4.3 | 0.00 | 0.03 | 0.03 | 73 | 1013.8 |
| 20260507204103 | 62 | 216 | 2.6 | 4.3 | 0.00 | 0.03 | 0.03 | 73 | 1013.8 |
| 20260507204003 | 62 | 216 | 2.6 | 4.3 | 0.00 | 0.03 | 0.03 | 72 | 1013.8 |
| 20260507203903 | 62 | 218 | 2.6 | 4.3 | 0.00 | 0.03 | 0.03 | 72 | 1013.8 |
| 20260507203803 | 62 | 219 | 2.6 | 4.3 | 0.00 | 0.03 | 0.03 | 72 | 1013.8 |
| 20260507203703 | 62 | 222 | 2.6 | 4.3 | 0.00 | 0.03 | 0.03 | 72 | 1013.8 |
| 20260507203603 | 62 | 223 | 2.6 | 4.3 | 0.00 | 0.03 | 0.03 | 72 | 1013.7 |
| 20260507203504 | 62 | 226 | 2.6 | 4.3 | 0.00 | 0.03 | 0.03 | 72 | 1013.7 |
| 20260507203404 | 62 | 226 | 2.6 | 4.3 | 0.00 | 0.03 | 0.03 | 72 | 1013.6 |
| 20260507203304 | 62 | 228 | 2.6 | 4.3 | 0.00 | 0.03 | 0.03 | 72 | 1013.6 |
| 20260507203203 | 63 | 228 | 2.6 | 4.3 | 0.00 | 0.03 | 0.03 | 72 | 1013.5 |
| 20260507203103 | 63 | 228 | 2.6 | 4.3 | 0.00 | 0.03 | 0.03 | 72 | 1013.5 |
| 20260507203003 | 63 | 228 | 2.6 | 4.3 | 0.00 | 0.03 | 0.03 | 72 | 1013.5 |
| 20260507202903 | 63 | 229 | 2.6 | 4.3 | 0.00 | 0.03 | 0.03 | 71 | 1013.4 |
| 20260507202803 | 63 | 230 | 2.6 | 4.3 | 0.00 | 0.03 | 0.03 | 71 | 1013.4 |
| 20260507202704 | 63 | 228 | 2.6 | 4.3 | 0.00 | 0.03 | 0.03 | 71 | 1013.4 |
| 20260507202604 | 63 | 227 | 2.6 | 4.3 | 0.00 | 0.03 | 0.03 | 71 | 1013.5 |
| 20260507202503 | 63 | 223 | 2.6 | 4.3 | 0.00 | 0.03 | 0.03 | 71 | 1013.5 |
| 20260507202403 | 63 | 221 | 2.6 | 5.2 | 0.00 | 0.03 | 0.03 | 71 | 1013.5 |
| 20260507202306 | 63 | 219 | 2.6 | 5.2 | 0.00 | 0.03 | 0.03 | 71 | 1013.5 |
| 20260507202203 | 63 | 220 | 2.6 | 5.2 | 0.00 | 0.03 | 0.03 | 71 | 1013.5 |
| 20260507202103 | 63 | 219 | 2.6 | 5.2 | 0.00 | 0.03 | 0.03 | 71 | 1013.4 |
| 20260507202003 | 63 | 217 | 2.6 | 5.2 | 0.00 | 0.03 | 0.03 | 71 | 1013.4 |
| 20260507201903 | 63 | 214 | 2.6 | 5.2 | 0.00 | 0.03 | 0.03 | 71 | 1013.5 |
| 20260507201803 | 63 | 214 | 2.6 | 5.2 | 0.00 | 0.03 | 0.03 | 71 | 1013.5 |
| 20260507201703 | 63 | 214 | 2.6 | 5.2 | 0.00 | 0.03 | 0.03 | 71 | 1013.5 |
| 20260507201603 | 63 | 215 | 2.6 | 5.2 | 0.00 | 0.03 | 0.03 | 71 | 1013.5 |
| 20260507201503 | 63 | 217 | 2.6 | 5.2 | 0.00 | 0.03 | 0.03 | 71 | 1013.5 |
| 20260507201403 | 63 | 218 | 2.6 | 5.2 | 0.00 | 0.03 | 0.03 | 71 | 1013.5 |
| 20260507201303 | 63 | 217 | 3.5 | 7.0 | 0.00 | 0.03 | 0.03 | 70 | 1013.6 |
| 20260507201203 | 63 | 219 | 3.5 | 7.0 | 0.00 | 0.03 | 0.03 | 70 | 1013.6 |
| 20260507201103 | 63 | 220 | 3.5 | 7.8 | 0.00 | 0.03 | 0.03 | 70 | 1013.5 |
| 20260507201003 | 64 | 223 | 3.5 | 7.8 | 0.00 | 0.03 | 0.03 | 70 | 1013.5 |
| 20260507200903 | 64 | 224 | 3.5 | 7.8 | 0.00 | 0.03 | 0.03 | 70 | 1013.5 |
| 20260507200803 | 64 | 225 | 3.5 | 7.8 | 0.00 | 0.03 | 0.03 | 70 | 1013.5 |
| 20260507200703 | 64 | 223 | 3.5 | 7.8 | 0.00 | 0.03 | 0.03 | 70 | 1013.5 |
| 20260507200603 | 64 | 223 | 3.5 | 7.8 | 0.00 | 0.03 | 0.03 | 70 | 1013.4 |
| 20260507200503 | 64 | 224 | 3.5 | 7.8 | 0.00 | 0.03 | 0.03 | 70 | 1013.4 |
| 20260507200403 | 64 | 224 | 4.3 | 7.8 | 0.00 | 0.03 | 0.03 | 70 | 1013.4 |
| 20260507200303 | 64 | 223 | 3.5 | 7.8 | 0.00 | 0.03 | 0.03 | 70 | 1013.4 |
| 20260507200203 | 64 | 222 | 3.5 | 7.8 | 0.00 | 0.03 | 0.03 | 70 | 1013.4 |
| 20260507200103 | 64 | 221 | 3.5 | 6.1 | 0.00 | 0.03 | 0.03 | 70 | 1013.3 |
| 20260507200004 | 64 | 218 | 3.5 | 6.1 | 0.00 | 0.03 | 0.03 | 70 | 1013.2 |
| 20260507195903 | 64 | 217 | 3.5 | 6.1 | 0.00 | 0.03 | 0.03 | 70 | 1013.2 |
| 20260507195803 | 64 | 215 | 3.5 | 7.0 | 0.00 | 0.03 | 0.03 | 70 | 1013.3 |
| 20260507195703 | 64 | 216 | 3.5 | 7.8 | 0.00 | 0.03 | 0.03 | 69 | 1013.2 |
| 20260507195603 | 64 | 216 | 3.5 | 7.8 | 0.00 | 0.03 | 0.03 | 69 | 1013.2 |
| 20260507195503 | 64 | 213 | 3.5 | 7.8 | 0.00 | 0.03 | 0.03 | 69 | 1013.2 |
| 20260507195403 | 64 | 213 | 3.5 | 7.8 | 0.00 | 0.03 | 0.03 | 69 | 1013.2 |
| 20260507195305 | 64 | 213 | 3.5 | 7.8 | 0.00 | 0.03 | 0.03 | 69 | 1013.2 |
| 20260507195203 | 64 | 213 | 3.5 | 7.8 | 0.00 | 0.03 | 0.03 | 69 | 1013.1 |
| 20260507195103 | 64 | 214 | 3.5 | 7.8 | 0.00 | 0.03 | 0.03 | 69 | 1013.1 |
| 20260507195003 | 64 | 216 | 3.5 | 7.8 | 0.00 | 0.03 | 0.03 | 69 | 1013.0 |
| 20260507194904 | 64 | 217 | 3.5 | 7.8 | 0.00 | 0.03 | 0.03 | 69 | 1013.0 |
| 20260507194803 | 64 | 219 | 3.5 | 7.8 | 0.00 | 0.03 | 0.03 | 69 | 1013.0 |
| 20260507194704 | 64 | 219 | 3.5 | 6.1 | 0.00 | 0.03 | 0.03 | 69 | 1013.0 |
| 20260507194603 | 64 | 220 | 3.5 | 6.1 | 0.00 | 0.03 | 0.03 | 69 | 1013.0 |
| 20260507194504 | 64 | 221 | 3.5 | 6.1 | 0.00 | 0.03 | 0.03 | 69 | 1013.0 |
| 20260507194403 | 64 | 222 | 3.5 | 6.1 | 0.00 | 0.03 | 0.03 | 69 | 1013.0 |
| 20260507194303 | 65 | 222 | 3.5 | 6.1 | 0.00 | 0.03 | 0.03 | 69 | 1012.9 |
| 20260507194203 | 65 | 223 | 3.5 | 6.1 | 0.00 | 0.03 | 0.03 | 69 | 1013.0 |
| 20260507194103 | 65 | 224 | 3.5 | 6.1 | 0.00 | 0.03 | 0.03 | 69 | 1013.0 |
| 20260507194004 | 65 | 223 | 3.5 | 6.1 | 0.00 | 0.03 | 0.03 | 69 | 1012.9 |
| 20260507193903 | 65 | 223 | 3.5 | 6.1 | 0.00 | 0.03 | 0.03 | 69 | 1012.9 |
| 20260507193804 | 65 | 222 | 3.5 | 5.2 | 0.00 | 0.03 | 0.03 | 69 | 1012.9 |
| 20260507193703 | 65 | 221 | 3.5 | 5.2 | 0.00 | 0.03 | 0.03 | 69 | 1012.9 |
| 20260507193603 | 65 | 219 | 3.5 | 5.2 | 0.00 | 0.03 | 0.03 | 69 | 1012.9 |
| 20260507193504 | 65 | 218 | 3.5 | 5.2 | 0.00 | 0.03 | 0.03 | 69 | 1012.8 |
| 20260507193403 | 65 | 217 | 3.5 | 5.2 | 0.00 | 0.03 | 0.03 | 69 | 1012.8 |
| 20260507193303 | 65 | 216 | 2.6 | 5.2 | 0.00 | 0.03 | 0.03 | 69 | 1012.8 |
| 20260507193203 | 65 | 213 | 2.6 | 5.2 | 0.00 | 0.03 | 0.03 | 68 | 1012.9 |
| 20260507193103 | 65 | 212 | 3.5 | 5.2 | 0.00 | 0.03 | 0.03 | 68 | 1012.9 |
| 20260507193003 | 65 | 213 | 3.5 | 5.2 | 0.00 | 0.03 | 0.03 | 68 | 1012.8 |
| 20260507192903 | 65 | 212 | 3.5 | 5.2 | 0.00 | 0.03 | 0.03 | 68 | 1012.7 |
| 20260507192803 | 65 | 212 | 3.5 | 5.2 | 0.00 | 0.03 | 0.03 | 68 | 1012.7 |
| 20260507192703 | 65 | 213 | 3.5 | 5.2 | 0.00 | 0.03 | 0.03 | 68 | 1012.7 |
| 20260507192603 | 65 | 214 | 3.5 | 5.2 | 0.00 | 0.03 | 0.03 | 68 | 1012.7 |
| 20260507192503 | 65 | 215 | 3.5 | 5.2 | 0.00 | 0.03 | 0.03 | 68 | 1012.7 |
| 20260507192403 | 65 | 213 | 2.6 | 5.2 | 0.00 | 0.03 | 0.03 | 68 | 1012.6 |
| 20260507192306 | 65 | 211 | 3.5 | 5.2 | 0.00 | 0.03 | 0.03 | 68 | 1012.6 |
| 20260507192203 | 65 | 210 | 2.6 | 5.2 | 0.00 | 0.03 | 0.03 | 68 | 1012.6 |
| 20260507192103 | 65 | 210 | 2.6 | 5.2 | 0.00 | 0.03 | 0.03 | 68 | 1012.6 |
| 20260507192003 | 65 | 208 | 2.6 | 5.2 | 0.00 | 0.03 | 0.03 | 68 | 1012.6 |
| 20260507191903 | 66 | 209 | 2.6 | 5.2 | 0.00 | 0.03 | 0.03 | 67 | 1012.6 |
| 20260507191803 | 66 | 210 | 2.6 | 4.3 | 0.00 | 0.03 | 0.03 | 67 | 1012.6 |
| 20260507191703 | 66 | 210 | 2.6 | 4.3 | 0.00 | 0.03 | 0.03 | 67 | 1012.6 |
| 20260507191603 | 66 | 211 | 2.6 | 4.3 | 0.00 | 0.03 | 0.03 | 67 | 1012.6 |
| 20260507191503 | 66 | 209 | 2.6 | 4.3 | 0.00 | 0.03 | 0.03 | 67 | 1012.6 |
| 20260507191403 | 66 | 206 | 3.5 | 7.8 | 0.00 | 0.03 | 0.03 | 66 | 1012.5 |
| 20260507191303 | 66 | 205 | 3.5 | 7.8 | 0.00 | 0.03 | 0.03 | 66 | 1012.5 |
| 20260507191203 | 66 | 207 | 3.5 | 7.8 | 0.00 | 0.03 | 0.03 | 66 | 1012.5 |
| 20260507191103 | 66 | 206 | 3.5 | 7.8 | 0.00 | 0.03 | 0.03 | 66 | 1012.4 |
| 20260507191003 | 66 | 206 | 3.5 | 7.8 | 0.00 | 0.03 | 0.03 | 65 | 1012.4 |
| 20260507190903 | 66 | 204 | 3.5 | 7.8 | 0.00 | 0.03 | 0.03 | 65 | 1012.5 |
| 20260507190803 | 66 | 203 | 2.6 | 7.8 | 0.00 | 0.03 | 0.03 | 64 | 1012.4 |
| 20260507190703 | 67 | 201 | 2.6 | 7.8 | 0.00 | 0.03 | 0.03 | 64 | 1012.4 |
| 20260507190603 | 67 | 197 | 2.6 | 7.8 | 0.00 | 0.03 | 0.03 | 64 | 1012.4 |
| 20260507190504 | 67 | 198 | 1.7 | 7.8 | 0.00 | 0.03 | 0.03 | 64 | 1012.4 |
| 20260507190403 | 67 | 202 | 0.9 | 7.8 | 0.00 | 0.03 | 0.03 | 64 | 1012.4 |
| 20260507190303 | 67 | 208 | 0.9 | 3.5 | 0.00 | 0.03 | 0.03 | 64 | 1012.4 |
| 20260507190203 | 67 | 208 | 0.9 | 3.5 | 0.00 | 0.03 | 0.03 | 64 | 1012.4 |
| 20260507190104 | 67 | 208 | 0.0 | 2.6 | 0.00 | 0.03 | 0.03 | 64 | 1012.3 |
| 20260507190005 | 67 | 208 | 0.0 | 1.7 | 0.00 | 0.03 | 0.03 | 64 | 1012.3 |
| 20260507185903 | 67 | 208 | 0.0 | 0.9 | 0.00 | 0.03 | 0.03 | 63 | 1012.3 |
| 20260507185803 | 67 | 208 | 0.0 | 0.9 | 0.00 | 0.03 | 0.03 | 63 | 1012.2 |
| 20260507185703 | 67 | 208 | 0.0 | 0.9 | 0.00 | 0.03 | 0.03 | 63 | 1012.2 |
| 20260507185603 | 67 | 208 | 0.0 | 0.9 | 0.00 | 0.03 | 0.03 | 63 | 1012.2 |
| 20260507185504 | 68 | 208 | 0.0 | 0.9 | 0.00 | 0.03 | 0.03 | 63 | 1012.2 |
| 20260507185403 | 68 | 208 | 0.0 | 0.9 | 0.00 | 0.03 | 0.03 | 63 | 1012.3 |
| 20260507185305 | 68 | 208 | 0.0 | 0.9 | 0.00 | 0.03 | 0.03 | 62 | 1012.2 |
| 20260507185203 | 68 | 208 | 0.0 | 0.9 | 0.00 | 0.03 | 0.03 | 62 | 1012.2 |
| 20260507185103 | 68 | 208 | 0.0 | 0.9 | 0.00 | 0.03 | 0.03 | 62 | 1012.2 |
| 20260507185003 | 68 | 208 | 0.0 | 0.9 | 0.00 | 0.03 | 0.03 | 61 | 1012.2 |
| 20260507184903 | 68 | 208 | 0.0 | 0.9 | 0.00 | 0.03 | 0.03 | 61 | 1012.2 |
| 20260507184803 | 68 | 208 | 0.0 | 0.9 | 0.00 | 0.03 | 0.03 | 62 | 1012.1 |
| 20260507184703 | 68 | 208 | 0.0 | 0.9 | 0.00 | 0.03 | 0.03 | 61 | 1012.1 |
| 20260507184603 | 68 | 208 | 0.0 | 0.9 | 0.00 | 0.03 | 0.03 | 61 | 1012.2 |
| 20260507184504 | 68 | 208 | 0.0 | 0.9 | 0.00 | 0.03 | 0.03 | 60 | 1012.1 |
| 20260507184403 | 68 | 208 | 0.0 | 0.9 | 0.00 | 0.03 | 0.03 | 60 | 1012.1 |
| 20260507184303 | 68 | 208 | 0.0 | 0.9 | 0.00 | 0.03 | 0.03 | 60 | 1012.2 |
| 20260507184203 | 68 | 208 | 0.0 | 0.9 | 0.00 | 0.03 | 0.03 | 60 | 1012.2 |
| 20260507184103 | 68 | 208 | 0.0 | 0.9 | 0.00 | 0.03 | 0.03 | 60 | 1012.2 |
| 20260507184003 | 68 | 208 | 0.0 | 1.7 | 0.00 | 0.03 | 0.03 | 60 | 1012.1 |
| 20260507183903 | 68 | 208 | 0.0 | 1.7 | 0.00 | 0.03 | 0.03 | 60 | 1012.1 |
| 20260507183803 | 68 | 208 | 0.0 | 1.7 | 0.00 | 0.03 | 0.03 | 60 | 1012.1 |
| 20260507183703 | 68 | 208 | 0.9 | 1.7 | 0.00 | 0.03 | 0.03 | 60 | 1012.1 |
| 20260507183603 | 68 | 208 | 0.9 | 1.7 | 0.00 | 0.03 | 0.03 | 60 | 1012.1 |
| 20260507183503 | 68 | 208 | 0.9 | 1.7 | 0.00 | 0.03 | 0.03 | 60 | 1012.1 |
| 20260507183403 | 68 | 208 | 0.9 | 1.7 | 0.00 | 0.03 | 0.03 | 60 | 1012.1 |
| 20260507183303 | 68 | 208 | 0.9 | 1.7 | 0.00 | 0.03 | 0.03 | 59 | 1012.1 |
| 20260507183203 | 68 | 208 | 0.9 | 1.7 | 0.00 | 0.03 | 0.03 | 59 | 1012.1 |
| 20260507183103 | 68 | 208 | 0.9 | 1.7 | 0.00 | 0.03 | 0.03 | 59 | 1012.1 |
| 20260507183003 | 68 | 208 | 0.9 | 1.7 | 0.00 | 0.03 | 0.03 | 59 | 1012.1 |
| 20260507182903 | 68 | 208 | 1.7 | 1.7 | 0.00 | 0.03 | 0.03 | 59 | 1012.1 |
| 20260507182803 | 68 | 208 | 0.9 | 1.7 | 0.00 | 0.03 | 0.03 | 59 | 1012.1 |
| 20260507182703 | 68 | 208 | 0.9 | 1.7 | 0.00 | 0.03 | 0.03 | 58 | 1012.1 |
| 20260507182603 | 68 | 208 | 0.9 | 1.7 | 0.00 | 0.03 | 0.03 | 58 | 1012.1 |
| 20260507182503 | 68 | 208 | 1.7 | 2.6 | 0.00 | 0.03 | 0.03 | 58 | 1012.2 |
| 20260507182404 | 68 | 208 | 1.7 | 2.6 | 0.00 | 0.03 | 0.03 | 58 | 1012.2 |
| 20260507182306 | 69 | 208 | 1.7 | 2.6 | 0.00 | 0.03 | 0.03 | 58 | 1012.2 |
| 20260507182203 | 69 | 208 | 1.7 | 2.6 | 0.00 | 0.03 | 0.03 | 58 | 1012.1 |
| 20260507182103 | 69 | 208 | 1.7 | 2.6 | 0.00 | 0.03 | 0.03 | 57 | 1012.1 |
| 20260507182003 | 69 | 208 | 1.7 | 2.6 | 0.00 | 0.03 | 0.03 | 57 | 1012.1 |
| 20260507181903 | 69 | 208 | 1.7 | 2.6 | 0.00 | 0.03 | 0.03 | 57 | 1012.1 |
| 20260507181803 | 69 | 208 | 1.7 | 2.6 | 0.00 | 0.03 | 0.03 | 57 | 1012.1 |
| 20260507181703 | 69 | 208 | 1.7 | 2.6 | 0.00 | 0.03 | 0.03 | 57 | 1012.0 |
| 20260507181603 | 69 | 208 | 1.7 | 2.6 | 0.00 | 0.03 | 0.03 | 56 | 1012.0 |
| 20260507181503 | 69 | 208 | 1.7 | 3.5 | 0.00 | 0.03 | 0.03 | 57 | 1012.1 |
| 20260507181403 | 69 | 208 | 1.7 | 3.5 | 0.00 | 0.03 | 0.03 | 56 | 1012.0 |
| 20260507181303 | 69 | 208 | 1.7 | 3.5 | 0.00 | 0.03 | 0.03 | 56 | 1012.0 |
| 20260507181203 | 69 | 207 | 1.7 | 3.5 | 0.00 | 0.03 | 0.03 | 56 | 1012.0 |
| 20260507181103 | 69 | 207 | 1.7 | 3.5 | 0.00 | 0.03 | 0.03 | 56 | 1012.0 |
| 20260507181004 | 69 | 207 | 1.7 | 3.5 | 0.00 | 0.03 | 0.03 | 56 | 1012.0 |
| 20260507180903 | 69 | 206 | 1.7 | 3.5 | 0.00 | 0.03 | 0.03 | 56 | 1012.0 |
| 20260507180803 | 69 | 205 | 1.7 | 3.5 | 0.00 | 0.03 | 0.03 | 55 | 1012.0 |
| 20260507180703 | 69 | 204 | 1.7 | 4.3 | 0.00 | 0.03 | 0.03 | 56 | 1011.9 |
| 20260507180603 | 69 | 201 | 2.6 | 4.3 | 0.00 | 0.03 | 0.03 | 56 | 1011.9 |
| 20260507180503 | 69 | 200 | 1.7 | 4.3 | 0.00 | 0.03 | 0.03 | 56 | 1012.0 |
| 20260507180403 | 69 | 199 | 1.7 | 4.3 | 0.00 | 0.03 | 0.03 | 56 | 1012.0 |
| 20260507180303 | 69 | 199 | 1.7 | 4.3 | 0.00 | 0.03 | 0.03 | 56 | 1012.0 |
| 20260507180203 | 69 | 200 | 1.7 | 4.3 | 0.00 | 0.03 | 0.03 | 56 | 1012.0 |
| 20260507180004 | 69 | 201 | 1.7 | 4.3 | 0.00 | 0.03 | 0.03 | 56 | 1012.0 |
| 20260507175903 | 69 | 202 | 1.7 | 4.3 | 0.00 | 0.03 | 0.03 | 56 | 1012.0 |
| 20260507175803 | 69 | 203 | 1.7 | 4.3 | 0.00 | 0.03 | 0.03 | 56 | 1012.0 |
| 20260507175703 | 70 | 203 | 1.7 | 3.5 | 0.00 | 0.03 | 0.03 | 57 | 1011.9 |
| 20260507175603 | 70 | 205 | 1.7 | 3.5 | 0.00 | 0.03 | 0.03 | 57 | 1011.8 |
| 20260507175503 | 70 | 208 | 1.7 | 3.5 | 0.00 | 0.03 | 0.03 | 57 | 1011.8 |
| 20260507175403 | 70 | 208 | 1.7 | 3.5 | 0.00 | 0.03 | 0.03 | 56 | 1011.8 |
| 20260507175306 | 70 | 209 | 1.7 | 3.5 | 0.00 | 0.03 | 0.03 | 56 | 1011.8 |
| 20260507175203 | 70 | 208 | 1.7 | 3.5 | 0.00 | 0.03 | 0.03 | 56 | 1011.8 |
| 20260507175103 | 70 | 211 | 1.7 | 3.5 | 0.00 | 0.03 | 0.03 | 55 | 1011.8 |
| 20260507175003 | 70 | 212 | 1.7 | 3.5 | 0.00 | 0.03 | 0.03 | 56 | 1011.8 |
| 20260507174903 | 70 | 209 | 1.7 | 3.5 | 0.00 | 0.03 | 0.03 | 56 | 1011.8 |
| 20260507174803 | 70 | 209 | 1.7 | 3.5 | 0.00 | 0.03 | 0.03 | 56 | 1011.7 |
| 20260507174703 | 70 | 211 | 1.7 | 3.5 | 0.00 | 0.03 | 0.03 | 56 | 1011.7 |
| 20260507174603 | 70 | 211 | 1.7 | 3.5 | 0.00 | 0.03 | 0.03 | 56 | 1011.8 |
| 20260507174503 | 70 | 203 | 1.7 | 3.5 | 0.00 | 0.03 | 0.03 | 56 | 1011.8 |
| 20260507174403 | 70 | 199 | 1.7 | 4.3 | 0.00 | 0.03 | 0.03 | 55 | 1011.7 |
| 20260507174303 | 70 | 195 | 1.7 | 4.3 | 0.00 | 0.03 | 0.03 | 55 | 1011.7 |
| 20260507174203 | 70 | 191 | 1.7 | 4.3 | 0.00 | 0.03 | 0.03 | 55 | 1011.7 |
| 20260507174103 | 70 | 185 | 1.7 | 4.3 | 0.00 | 0.03 | 0.03 | 55 | 1011.7 |
| 20260507174003 | 70 | 181 | 1.7 | 4.3 | 0.00 | 0.03 | 0.03 | 55 | 1011.7 |
| 20260507173903 | 70 | 179 | 1.7 | 5.2 | 0.00 | 0.03 | 0.03 | 55 | 1011.7 |
| 20260507173804 | 70 | 178 | 2.6 | 5.2 | 0.00 | 0.03 | 0.03 | 55 | 1011.7 |
| 20260507173703 | 70 | 176 | 2.6 | 5.2 | 0.00 | 0.03 | 0.03 | 55 | 1011.7 |
| 20260507173604 | 70 | 180 | 2.6 | 6.1 | 0.00 | 0.03 | 0.03 | 55 | 1011.7 |
| 20260507173503 | 70 | 185 | 2.6 | 6.1 | 0.00 | 0.03 | 0.03 | 55 | 1011.7 |
| 20260507173403 | 70 | 189 | 2.6 | 6.1 | 0.00 | 0.03 | 0.03 | 55 | 1011.6 |
| 20260507173303 | 70 | 194 | 3.5 | 6.1 | 0.00 | 0.03 | 0.03 | 55 | 1011.6 |
| 20260507173203 | 70 | 197 | 3.5 | 6.1 | 0.00 | 0.03 | 0.03 | 54 | 1011.6 |
| 20260507173103 | 70 | 197 | 3.5 | 6.1 | 0.00 | 0.03 | 0.03 | 54 | 1011.6 |
| 20260507173004 | 70 | 196 | 3.5 | 6.1 | 0.00 | 0.03 | 0.03 | 55 | 1011.7 |
| 20260507172903 | 70 | 201 | 3.5 | 6.1 | 0.00 | 0.03 | 0.03 | 55 | 1011.7 |
| 20260507172804 | 70 | 206 | 3.5 | 6.1 | 0.00 | 0.03 | 0.03 | 55 | 1011.8 |
| 20260507172704 | 70 | 212 | 3.5 | 6.1 | 0.00 | 0.03 | 0.03 | 55 | 1011.8 |
| 20260507172603 | 70 | 213 | 3.5 | 6.1 | 0.00 | 0.03 | 0.03 | 55 | 1011.7 |
| 20260507172503 | 70 | 213 | 3.5 | 6.1 | 0.00 | 0.03 | 0.03 | 55 | 1011.7 |
| 20260507172403 | 70 | 213 | 3.5 | 6.1 | 0.00 | 0.03 | 0.03 | 55 | 1011.7 |
| 20260507172307 | 70 | 210 | 3.5 | 6.1 | 0.00 | 0.03 | 0.03 | 55 | 1011.7 |
| 20260507172203 | 70 | 211 | 2.6 | 6.1 | 0.00 | 0.03 | 0.03 | 55 | 1011.7 |
| 20260507172103 | 70 | 215 | 2.6 | 6.1 | 0.00 | 0.03 | 0.03 | 55 | 1011.7 |
| 20260507172003 | 70 | 219 | 2.6 | 5.2 | 0.00 | 0.03 | 0.03 | 56 | 1011.6 |
| 20260507171903 | 70 | 218 | 2.6 | 5.2 | 0.00 | 0.03 | 0.03 | 55 | 1011.6 |
| 20260507171803 | 70 | 217 | 2.6 | 5.2 | 0.00 | 0.03 | 0.03 | 55 | 1011.7 |
| 20260507171704 | 70 | 215 | 1.7 | 5.2 | 0.00 | 0.03 | 0.03 | 55 | 1011.7 |
| 20260507171603 | 71 | 214 | 1.7 | 5.2 | 0.00 | 0.03 | 0.03 | 56 | 1011.7 |
| 20260507171503 | 71 | 215 | 1.7 | 5.2 | 0.00 | 0.03 | 0.03 | 56 | 1011.6 |
| 20260507171403 | 71 | 216 | 1.7 | 4.3 | 0.00 | 0.03 | 0.03 | 55 | 1011.6 |
| 20260507171303 | 71 | 216 | 1.7 | 4.3 | 0.00 | 0.03 | 0.03 | 55 | 1011.6 |
| 20260507171203 | 71 | 210 | 1.7 | 4.3 | 0.00 | 0.03 | 0.03 | 55 | 1011.7 |
| 20260507171103 | 71 | 206 | 1.7 | 4.3 | 0.00 | 0.03 | 0.03 | 54 | 1011.7 |
| 20260507171003 | 71 | 206 | 1.7 | 4.3 | 0.00 | 0.03 | 0.03 | 55 | 1011.7 |
| 20260507170903 | 71 | 204 | 1.7 | 4.3 | 0.00 | 0.03 | 0.03 | 54 | 1011.7 |
| 20260507170803 | 71 | 204 | 1.7 | 4.3 | 0.00 | 0.03 | 0.03 | 54 | 1011.7 |
| 20260507170703 | 71 | 204 | 1.7 | 4.3 | 0.00 | 0.03 | 0.03 | 55 | 1011.7 |
| 20260507170603 | 71 | 205 | 1.7 | 4.3 | 0.00 | 0.03 | 0.03 | 54 | 1011.7 |
| 20260507170503 | 71 | 210 | 2.6 | 6.1 | 0.00 | 0.03 | 0.03 | 55 | 1011.6 |
| 20260507170403 | 71 | 217 | 2.6 | 7.0 | 0.00 | 0.03 | 0.03 | 54 | 1011.6 |
| 20260507170303 | 71 | 220 | 2.6 | 7.0 | 0.00 | 0.03 | 0.03 | 54 | 1011.6 |
| 20260507170203 | 71 | 232 | 2.6 | 7.0 | 0.00 | 0.03 | 0.03 | 54 | 1011.7 |
| 20260507170004 | 71 | 239 | 2.6 | 7.0 | 0.00 | 0.03 | 0.03 | 53 | 1011.6 |
| 20260507165903 | 72 | 247 | 1.7 | 7.0 | 0.00 | 0.03 | 0.03 | 53 | 1011.6 |
| 20260507165803 | 72 | 253 | 1.7 | 7.0 | 0.00 | 0.03 | 0.03 | 54 | 1011.6 |
| 20260507165703 | 72 | 258 | 1.7 | 7.0 | 0.00 | 0.03 | 0.03 | 54 | 1011.7 |
| 20260507165603 | 71 | 261 | 1.7 | 7.0 | 0.00 | 0.03 | 0.03 | 53 | 1011.7 |
| 20260507165504 | 71 | 260 | 1.7 | 7.0 | 0.00 | 0.03 | 0.03 | 54 | 1011.6 |
| 20260507165403 | 71 | 263 | 1.7 | 5.2 | 0.00 | 0.03 | 0.03 | 54 | 1011.6 |
| 20260507165306 | 71 | 266 | 1.7 | 5.2 | 0.00 | 0.03 | 0.03 | 55 | 1011.6 |
| 20260507165203 | 71 | 266 | 1.7 | 5.2 | 0.00 | 0.03 | 0.03 | 55 | 1011.7 |
| 20260507165103 | 71 | 267 | 1.7 | 5.2 | 0.00 | 0.03 | 0.03 | 55 | 1011.7 |
| 20260507165003 | 71 | 265 | 1.7 | 5.2 | 0.00 | 0.03 | 0.03 | 56 | 1011.6 |
| 20260507164903 | 71 | 266 | 1.7 | 5.2 | 0.00 | 0.03 | 0.03 | 55 | 1011.6 |
| 20260507164803 | 71 | 268 | 1.7 | 5.2 | 0.00 | 0.03 | 0.03 | 55 | 1011.6 |
| 20260507164703 | 71 | 266 | 2.6 | 5.2 | 0.00 | 0.03 | 0.03 | 56 | 1011.7 |
| 20260507164603 | 71 | 262 | 2.6 | 5.2 | 0.00 | 0.03 | 0.03 | 56 | 1011.7 |
| 20260507164503 | 71 | 259 | 2.6 | 5.2 | 0.00 | 0.03 | 0.03 | 55 | 1011.6 |
| 20260507164404 | 71 | 253 | 2.6 | 5.2 | 0.00 | 0.03 | 0.03 | 56 | 1011.5 |
| 20260507164303 | 71 | 248 | 2.6 | 5.2 | 0.00 | 0.03 | 0.03 | 56 | 1011.5 |
| 20260507164203 | 71 | 240 | 2.6 | 4.3 | 0.00 | 0.03 | 0.03 | 56 | 1011.6 |
| 20260507164103 | 71 | 229 | 2.6 | 5.2 | 0.00 | 0.03 | 0.03 | 56 | 1011.6 |
| 20260507164003 | 71 | 223 | 2.6 | 5.2 | 0.00 | 0.03 | 0.03 | 57 | 1011.6 |
| 20260507163903 | 70 | 216 | 2.6 | 6.1 | 0.00 | 0.03 | 0.03 | 57 | 1011.6 |
| 20260507163803 | 70 | 210 | 3.5 | 6.1 | 0.00 | 0.03 | 0.03 | 57 | 1011.6 |
| 20260507163703 | 70 | 205 | 3.5 | 6.1 | 0.00 | 0.03 | 0.03 | 56 | 1011.6 |
| 20260507163603 | 70 | 204 | 3.5 | 6.1 | 0.00 | 0.03 | 0.03 | 56 | 1011.6 |
| 20260507163503 | 70 | 202 | 2.6 | 6.1 | 0.00 | 0.03 | 0.03 | 56 | 1011.6 |
| 20260507163403 | 71 | 202 | 2.6 | 6.1 | 0.00 | 0.03 | 0.03 | 56 | 1011.6 |
| 20260507163303 | 71 | 204 | 2.6 | 6.1 | 0.00 | 0.03 | 0.03 | 55 | 1011.6 |
| 20260507163203 | 71 | 207 | 2.6 | 6.1 | 0.00 | 0.03 | 0.03 | 56 | 1011.6 |
| 20260507163103 | 71 | 206 | 2.6 | 6.1 | 0.00 | 0.03 | 0.03 | 56 | 1011.7 |
| 20260507163003 | 71 | 203 | 2.6 | 6.1 | 0.00 | 0.03 | 0.03 | 56 | 1011.7 |
| 20260507162903 | 71 | 206 | 2.6 | 6.1 | 0.00 | 0.03 | 0.03 | 55 | 1011.6 |
| 20260507162803 | 71 | 206 | 2.6 | 6.1 | 0.00 | 0.03 | 0.03 | 56 | 1011.6 |
| 20260507162703 | 71 | 201 | 2.6 | 6.1 | 0.00 | 0.03 | 0.03 | 55 | 1011.6 |
| 20260507162603 | 71 | 195 | 3.5 | 6.1 | 0.00 | 0.03 | 0.03 | 55 | 1011.7 |
| 20260507162503 | 71 | 192 | 2.6 | 6.1 | 0.00 | 0.03 | 0.03 | 55 | 1011.7 |
| 20260507162403 | 71 | 189 | 2.6 | 6.1 | 0.00 | 0.03 | 0.03 | 56 | 1011.7 |
| 20260507162306 | 71 | 184 | 2.6 | 6.1 | 0.00 | 0.03 | 0.03 | 56 | 1011.6 |
| 20260507162203 | 71 | 180 | 2.6 | 6.1 | 0.00 | 0.03 | 0.03 | 56 | 1011.6 |
| 20260507162103 | 71 | 180 | 1.7 | 6.1 | 0.00 | 0.03 | 0.03 | 56 | 1011.5 |
| 20260507162003 | 71 | 177 | 1.7 | 6.1 | 0.00 | 0.03 | 0.03 | 56 | 1011.5 |
| 20260507161903 | 71 | 169 | 0.9 | 6.1 | 0.00 | 0.03 | 0.03 | 56 | 1011.6 |
| 20260507161803 | 71 | 165 | 0.9 | 6.1 | 0.00 | 0.03 | 0.03 | 55 | 1011.6 |
| 20260507161703 | 71 | 173 | 0.9 | 6.1 | 0.00 | 0.03 | 0.03 | 55 | 1011.6 |
| 20260507161603 | 71 | 182 | 0.0 | 4.3 | 0.00 | 0.03 | 0.03 | 56 | 1011.5 |
| 20260507161503 | 71 | 199 | 0.0 | 1.7 | 0.00 | 0.03 | 0.03 | 56 | 1011.5 |
| 20260507161403 | 70 | 199 | 0.0 | 3.5 | 0.00 | 0.03 | 0.03 | 56 | 1011.5 |
| 20260507161303 | 70 | 199 | 0.9 | 3.5 | 0.00 | 0.03 | 0.03 | 56 | 1011.5 |
| 20260507161203 | 70 | 200 | 0.9 | 3.5 | 0.00 | 0.03 | 0.03 | 56 | 1011.5 |
| 20260507161103 | 70 | 202 | 0.9 | 4.3 | 0.00 | 0.03 | 0.03 | 56 | 1011.5 |
| 20260507161003 | 70 | 195 | 0.9 | 4.3 | 0.00 | 0.03 | 0.03 | 56 | 1011.5 |
| 20260507160903 | 70 | 200 | 0.9 | 4.3 | 0.00 | 0.03 | 0.03 | 55 | 1011.5 |
| 20260507160803 | 71 | 204 | 1.7 | 5.2 | 0.00 | 0.03 | 0.03 | 55 | 1011.6 |
| 20260507160703 | 71 | 204 | 1.7 | 6.1 | 0.00 | 0.03 | 0.03 | 55 | 1011.6 |
| 20260507160603 | 71 | 204 | 2.6 | 7.0 | 0.00 | 0.03 | 0.03 | 55 | 1011.6 |
| 20260507160503 | 71 | 203 | 2.6 | 7.0 | 0.00 | 0.03 | 0.03 | 56 | 1011.5 |
| 20260507160403 | 71 | 204 | 2.6 | 7.0 | 0.00 | 0.03 | 0.03 | 56 | 1011.5 |
| 20260507160303 | 70 | 204 | 2.6 | 7.0 | 0.00 | 0.03 | 0.03 | 56 | 1011.5 |
| 20260507160203 | 70 | 208 | 2.6 | 7.0 | 0.00 | 0.03 | 0.03 | 56 | 1011.5 |
| 20260507160103 | 71 | 210 | 3.5 | 7.0 | 0.00 | 0.03 | 0.03 | 56 | 1011.6 |
| 20260507160004 | 71 | 214 | 3.5 | 7.0 | 0.00 | 0.03 | 0.03 | 56 | 1011.5 |
| 20260507155903 | 71 | 214 | 3.5 | 7.0 | 0.00 | 0.03 | 0.03 | 56 | 1011.5 |
| 20260507155803 | 71 | 216 | 3.5 | 7.0 | 0.00 | 0.03 | 0.03 | 56 | 1011.5 |
| 20260507155703 | 71 | 219 | 3.5 | 7.0 | 0.00 | 0.03 | 0.03 | 55 | 1011.5 |
| 20260507155603 | 71 | 221 | 2.6 | 6.1 | 0.00 | 0.03 | 0.03 | 55 | 1011.6 |
| 20260507155503 | 71 | 221 | 2.6 | 5.2 | 0.00 | 0.03 | 0.03 | 55 | 1011.5 |
| 20260507155403 | 71 | 217 | 3.5 | 7.0 | 0.00 | 0.03 | 0.03 | 55 | 1011.5 |
| 20260507155306 | 71 | 217 | 3.5 | 7.0 | 0.00 | 0.03 | 0.03 | 54 | 1011.5 |
| 20260507155203 | 71 | 219 | 3.5 | 7.0 | 0.00 | 0.03 | 0.03 | 55 | 1011.5 |
| 20260507155103 | 71 | 221 | 3.5 | 7.0 | 0.00 | 0.03 | 0.03 | 55 | 1011.5 |
| 20260507155003 | 71 | 217 | 3.5 | 7.0 | 0.00 | 0.03 | 0.03 | 55 | 1011.5 |
| 20260507154903 | 71 | 215 | 3.5 | 7.0 | 0.00 | 0.03 | 0.03 | 56 | 1011.5 |
| 20260507154803 | 71 | 211 | 3.5 | 7.0 | 0.00 | 0.03 | 0.03 | 56 | 1011.5 |
| 20260507154703 | 71 | 205 | 3.5 | 7.0 | 0.00 | 0.03 | 0.03 | 56 | 1011.5 |
| 20260507154603 | 71 | 203 | 3.5 | 7.0 | 0.00 | 0.03 | 0.03 | 55 | 1011.5 |
| 20260507154503 | 71 | 203 | 3.5 | 7.0 | 0.00 | 0.03 | 0.03 | 55 | 1011.5 |
| 20260507154403 | 71 | 202 | 3.5 | 7.0 | 0.00 | 0.03 | 0.03 | 55 | 1011.5 |
| 20260507154303 | 71 | 198 | 3.5 | 7.0 | 0.00 | 0.03 | 0.03 | 55 | 1011.5 |
| 20260507154203 | 71 | 191 | 3.5 | 7.0 | 0.00 | 0.03 | 0.03 | 57 | 1011.6 |
| 20260507154103 | 70 | 188 | 3.5 | 7.0 | 0.00 | 0.03 | 0.03 | 56 | 1011.6 |
| 20260507154003 | 70 | 188 | 3.5 | 7.0 | 0.00 | 0.03 | 0.03 | 56 | 1011.6 |
| 20260507153903 | 70 | 189 | 3.5 | 7.0 | 0.00 | 0.03 | 0.03 | 55 | 1011.6 |
| 20260507153803 | 70 | 191 | 3.5 | 7.0 | 0.00 | 0.03 | 0.03 | 56 | 1011.6 |
| 20260507153703 | 70 | 191 | 2.6 | 7.0 | 0.00 | 0.03 | 0.03 | 56 | 1011.6 |
| 20260507153603 | 71 | 191 | 2.6 | 7.0 | 0.00 | 0.03 | 0.03 | 55 | 1011.6 |
| 20260507153504 | 71 | 191 | 2.6 | 7.0 | 0.00 | 0.03 | 0.03 | 55 | 1011.6 |
| 20260507153403 | 71 | 192 | 1.7 | 7.0 | 0.00 | 0.03 | 0.03 | 56 | 1011.6 |
| 20260507153303 | 71 | 199 | 1.7 | 6.1 | 0.00 | 0.03 | 0.03 | 56 | 1011.6 |
| 20260507153203 | 71 | 206 | 1.7 | 6.1 | 0.00 | 0.03 | 0.03 | 56 | 1011.6 |
| 20260507153103 | 71 | 206 | 1.7 | 6.1 | 0.00 | 0.03 | 0.03 | 56 | 1011.6 |
| 20260507153003 | 71 | 210 | 0.9 | 6.1 | 0.00 | 0.03 | 0.03 | 57 | 1011.6 |
| 20260507152903 | 71 | 217 | 0.9 | 3.5 | 0.00 | 0.03 | 0.03 | 57 | 1011.7 |
| 20260507152803 | 70 | 223 | 0.9 | 4.3 | 0.00 | 0.03 | 0.03 | 57 | 1011.7 |
| 20260507152703 | 71 | 224 | 1.7 | 4.3 | 0.00 | 0.03 | 0.03 | 56 | 1011.6 |
| 20260507152603 | 71 | 224 | 1.7 | 4.3 | 0.00 | 0.03 | 0.03 | 56 | 1011.6 |
| 20260507152503 | 71 | 229 | 1.7 | 4.3 | 0.00 | 0.03 | 0.03 | 56 | 1011.6 |
| 20260507152403 | 71 | 225 | 1.7 | 5.2 | 0.00 | 0.03 | 0.03 | 57 | 1011.7 |
| 20260507152306 | 70 | 219 | 2.6 | 6.1 | 0.00 | 0.03 | 0.03 | 56 | 1011.7 |
| 20260507152203 | 71 | 217 | 2.6 | 7.0 | 0.00 | 0.03 | 0.03 | 56 | 1011.7 |
| 20260507152103 | 71 | 217 | 2.6 | 7.0 | 0.00 | 0.03 | 0.03 | 56 | 1011.7 |
| 20260507152004 | 71 | 217 | 2.6 | 7.0 | 0.00 | 0.03 | 0.03 | 56 | 1011.7 |
| 20260507151903 | 71 | 215 | 2.6 | 7.0 | 0.00 | 0.03 | 0.03 | 57 | 1011.7 |
| 20260507151803 | 71 | 212 | 2.6 | 7.0 | 0.00 | 0.03 | 0.03 | 57 | 1011.7 |
| 20260507151703 | 71 | 211 | 2.6 | 7.0 | 0.00 | 0.03 | 0.03 | 57 | 1011.7 |
| 20260507151603 | 71 | 207 | 3.5 | 7.0 | 0.00 | 0.03 | 0.03 | 56 | 1011.7 |
| 20260507151504 | 71 | 209 | 3.5 | 7.0 | 0.00 | 0.03 | 0.03 | 56 | 1011.7 |
| 20260507151403 | 71 | 216 | 3.5 | 7.0 | 0.00 | 0.03 | 0.03 | 55 | 1011.6 |
| 20260507151303 | 71 | 221 | 3.5 | 7.0 | 0.00 | 0.03 | 0.03 | 56 | 1011.6 |
| 20260507151203 | 71 | 219 | 3.5 | 7.0 | 0.00 | 0.03 | 0.03 | 56 | 1011.7 |
| 20260507151103 | 71 | 215 | 3.5 | 7.0 | 0.00 | 0.03 | 0.03 | 55 | 1011.7 |
| 20260507151003 | 71 | 215 | 3.5 | 7.0 | 0.00 | 0.03 | 0.03 | 56 | 1011.7 |
| 20260507150903 | 71 | 219 | 3.5 | 7.0 | 0.00 | 0.03 | 0.03 | 55 | 1011.7 |
| 20260507150803 | 71 | 221 | 3.5 | 7.0 | 0.00 | 0.03 | 0.03 | 55 | 1011.7 |
| 20260507150703 | 71 | 222 | 3.5 | 7.0 | 0.00 | 0.03 | 0.03 | 56 | 1011.8 |
| 20260507150603 | 71 | 223 | 3.5 | 7.0 | 0.00 | 0.03 | 0.03 | 56 | 1011.7 |
| 20260507150503 | 71 | 219 | 3.5 | 7.0 | 0.00 | 0.03 | 0.03 | 55 | 1011.7 |
| 20260507150403 | 72 | 213 | 2.6 | 7.0 | 0.00 | 0.03 | 0.03 | 56 | 1011.7 |
| 20260507150303 | 71 | 206 | 2.6 | 6.1 | 0.00 | 0.03 | 0.03 | 55 | 1011.7 |
| 20260507150203 | 72 | 204 | 2.6 | 6.1 | 0.00 | 0.03 | 0.03 | 55 | 1011.7 |
| 20260507150004 | 71 | 201 | 1.7 | 5.2 | 0.00 | 0.03 | 0.03 | 56 | 1011.7 |
| 20260507145903 | 71 | 195 | 1.7 | 5.2 | 0.00 | 0.03 | 0.03 | 56 | 1011.7 |
| 20260507145803 | 71 | 193 | 1.7 | 5.2 | 0.00 | 0.03 | 0.03 | 57 | 1011.8 |
| 20260507145703 | 71 | 197 | 1.7 | 4.3 | 0.00 | 0.03 | 0.03 | 57 | 1011.8 |
| 20260507145603 | 71 | 198 | 1.7 | 4.3 | 0.00 | 0.03 | 0.03 | 57 | 1011.7 |
| 20260507145503 | 70 | 196 | 1.7 | 6.1 | 0.00 | 0.03 | 0.03 | 57 | 1011.7 |
| 20260507145403 | 71 | 200 | 2.6 | 7.0 | 0.00 | 0.03 | 0.03 | 57 | 1011.7 |
| 20260507145306 | 71 | 208 | 2.6 | 7.0 | 0.00 | 0.03 | 0.03 | 56 | 1011.7 |
| 20260507145203 | 71 | 213 | 2.6 | 7.0 | 0.00 | 0.03 | 0.03 | 56 | 1011.7 |
| 20260507145103 | 71 | 216 | 2.6 | 7.0 | 0.00 | 0.03 | 0.03 | 56 | 1011.7 |
| 20260507145003 | 71 | 217 | 2.6 | 7.0 | 0.00 | 0.03 | 0.03 | 56 | 1011.7 |
| 20260507144903 | 71 | 215 | 2.6 | 7.0 | 0.00 | 0.03 | 0.03 | 56 | 1011.8 |
| 20260507144803 | 71 | 206 | 3.5 | 7.0 | 0.00 | 0.03 | 0.03 | 55 | 1011.7 |
| 20260507144703 | 72 | 206 | 3.5 | 7.0 | 0.00 | 0.03 | 0.03 | 55 | 1011.7 |
| 20260507144603 | 72 | 205 | 3.5 | 7.8 | 0.00 | 0.03 | 0.03 | 55 | 1011.8 |
| 20260507144503 | 72 | 205 | 3.5 | 7.8 | 0.00 | 0.03 | 0.03 | 55 | 1011.8 |
| 20260507144403 | 72 | 200 | 3.5 | 7.8 | 0.00 | 0.03 | 0.03 | 55 | 1011.8 |
| 20260507144303 | 72 | 198 | 3.5 | 7.8 | 0.00 | 0.03 | 0.03 | 55 | 1011.8 |
| 20260507144203 | 71 | 202 | 3.5 | 8.7 | 0.00 | 0.03 | 0.03 | 54 | 1011.8 |
| 20260507144103 | 71 | 201 | 4.3 | 8.7 | 0.00 | 0.03 | 0.03 | 53 | 1011.8 |
| 20260507144003 | 72 | 201 | 4.3 | 8.7 | 0.00 | 0.03 | 0.03 | 52 | 1011.8 |
| 20260507143903 | 72 | 204 | 4.3 | 8.7 | 0.00 | 0.03 | 0.03 | 55 | 1011.8 |
| 20260507143803 | 72 | 210 | 4.3 | 8.7 | 0.00 | 0.03 | 0.03 | 55 | 1011.8 |
| 20260507143703 | 72 | 208 | 4.3 | 8.7 | 0.00 | 0.03 | 0.03 | 55 | 1011.8 |
| 20260507143603 | 72 | 209 | 4.3 | 8.7 | 0.00 | 0.03 | 0.03 | 56 | 1011.8 |
| 20260507143503 | 72 | 211 | 3.5 | 8.7 | 0.00 | 0.03 | 0.03 | 55 | 1011.8 |
| 20260507143403 | 72 | 214 | 4.3 | 8.7 | 0.00 | 0.03 | 0.03 | 54 | 1011.8 |
| 20260507143303 | 72 | 214 | 3.5 | 8.7 | 0.00 | 0.03 | 0.03 | 56 | 1011.8 |
| 20260507143203 | 72 | 211 | 3.5 | 7.8 | 0.00 | 0.03 | 0.03 | 55 | 1011.8 |
| 20260507143103 | 72 | 213 | 2.6 | 7.8 | 0.00 | 0.03 | 0.03 | 54 | 1011.8 |
| 20260507143003 | 72 | 214 | 2.6 | 7.8 | 0.00 | 0.03 | 0.03 | 55 | 1011.8 |
| 20260507142903 | 72 | 215 | 2.6 | 7.8 | 0.00 | 0.03 | 0.03 | 54 | 1011.8 |
| 20260507142803 | 72 | 219 | 2.6 | 7.8 | 0.00 | 0.03 | 0.03 | 55 | 1011.9 |
| 20260507142703 | 72 | 226 | 2.6 | 7.0 | 0.00 | 0.03 | 0.03 | 56 | 1011.9 |
| 20260507142603 | 72 | 225 | 2.6 | 6.1 | 0.00 | 0.03 | 0.03 | 56 | 1011.9 |
| 20260507142503 | 72 | 222 | 2.6 | 6.1 | 0.00 | 0.03 | 0.03 | 56 | 1011.8 |
| 20260507142403 | 72 | 215 | 2.6 | 6.1 | 0.00 | 0.03 | 0.03 | 55 | 1011.8 |
| 20260507142306 | 72 | 211 | 2.6 | 6.1 | 0.00 | 0.03 | 0.03 | 55 | 1011.8 |
| 20260507142203 | 72 | 208 | 2.6 | 6.1 | 0.00 | 0.03 | 0.03 | 57 | 1011.8 |
| 20260507142103 | 72 | 203 | 2.6 | 6.1 | 0.00 | 0.03 | 0.03 | 56 | 1011.8 |
| 20260507142003 | 72 | 203 | 3.5 | 6.1 | 0.00 | 0.03 | 0.03 | 57 | 1011.9 |
| 20260507141903 | 72 | 205 | 3.5 | 6.1 | 0.00 | 0.03 | 0.03 | 58 | 1011.9 |
| 20260507141803 | 72 | 204 | 2.6 | 6.1 | 0.00 | 0.03 | 0.03 | 58 | 1011.8 |
| 20260507141703 | 72 | 204 | 2.6 | 6.1 | 0.00 | 0.03 | 0.03 | 57 | 1011.8 |
| 20260507141603 | 72 | 212 | 2.6 | 7.0 | 0.00 | 0.03 | 0.03 | 56 | 1011.8 |
| 20260507141503 | 72 | 227 | 3.5 | 7.8 | 0.00 | 0.03 | 0.03 | 56 | 1011.8 |
| 20260507141403 | 72 | 237 | 3.5 | 7.8 | 0.00 | 0.03 | 0.03 | 56 | 1011.8 |
| 20260507141303 | 73 | 242 | 3.5 | 7.8 | 0.00 | 0.03 | 0.03 | 55 | 1011.8 |
| 20260507141203 | 73 | 242 | 4.3 | 7.8 | 0.00 | 0.03 | 0.03 | 55 | 1011.9 |
| 20260507141103 | 73 | 242 | 4.3 | 7.8 | 0.00 | 0.03 | 0.03 | 55 | 1011.9 |
| 20260507141003 | 73 | 244 | 4.3 | 7.8 | 0.00 | 0.03 | 0.03 | 55 | 1011.8 |
| 20260507140903 | 73 | 244 | 4.3 | 7.8 | 0.00 | 0.03 | 0.03 | 55 | 1012.0 |
| 20260507140803 | 73 | 244 | 4.3 | 7.8 | 0.00 | 0.03 | 0.03 | 55 | 1012.0 |
| 20260507140703 | 73 | 244 | 4.3 | 7.8 | 0.00 | 0.03 | 0.03 | 55 | 1012.0 |
| 20260507140603 | 73 | 244 | 3.5 | 7.8 | 0.00 | 0.03 | 0.03 | 56 | 1012.0 |
| 20260507140503 | 73 | 242 | 3.5 | 7.8 | 0.00 | 0.03 | 0.03 | 55 | 1012.0 |
| 20260507140403 | 73 | 248 | 3.5 | 7.8 | 0.00 | 0.03 | 0.03 | 55 | 1012.1 |
| 20260507140303 | 73 | 249 | 3.5 | 7.8 | 0.00 | 0.03 | 0.03 | 55 | 1012.1 |
| 20260507140203 | 73 | 251 | 2.6 | 7.8 | 0.00 | 0.03 | 0.03 | 56 | 1012.1 |
| 20260507140004 | 73 | 242 | 2.6 | 7.8 | 0.00 | 0.03 | 0.03 | 57 | 1012.1 |
| 20260507135903 | 73 | 226 | 2.6 | 7.8 | 0.00 | 0.03 | 0.03 | 58 | 1012.1 |
| 20260507135804 | 73 | 214 | 3.5 | 7.8 | 0.00 | 0.03 | 0.03 | 58 | 1012.1 |
| 20260507135703 | 72 | 208 | 3.5 | 7.8 | 0.00 | 0.03 | 0.03 | 59 | 1012.1 |
| 20260507135603 | 72 | 207 | 3.5 | 7.8 | 0.00 | 0.03 | 0.03 | 59 | 1012.1 |
| 20260507135503 | 72 | 208 | 3.5 | 7.8 | 0.00 | 0.03 | 0.03 | 59 | 1012.1 |
| 20260507135403 | 71 | 201 | 3.5 | 7.8 | 0.00 | 0.03 | 0.03 | 60 | 1012.1 |
| 20260507135306 | 71 | 202 | 3.5 | 7.8 | 0.00 | 0.03 | 0.03 | 59 | 1012.1 |
| 20260507135203 | 71 | 206 | 4.3 | 7.8 | 0.00 | 0.03 | 0.03 | 58 | 1012.1 |
| 20260507135103 | 72 | 215 | 4.3 | 7.8 | 0.00 | 0.03 | 0.03 | 58 | 1012.1 |
| 20260507135003 | 72 | 216 | 4.3 | 9.6 | 0.00 | 0.03 | 0.03 | 57 | 1012.1 |
| 20260507134903 | 72 | 214 | 4.3 | 9.6 | 0.00 | 0.03 | 0.03 | 57 | 1012.0 |
| 20260507134803 | 72 | 215 | 4.3 | 9.6 | 0.00 | 0.03 | 0.03 | 58 | 1012.0 |
| 20260507134703 | 72 | 217 | 4.3 | 9.6 | 0.00 | 0.03 | 0.03 | 59 | 1012.1 |
| 20260507134603 | 72 | 219 | 4.3 | 9.6 | 0.00 | 0.03 | 0.03 | 57 | 1012.1 |
| 20260507134503 | 72 | 217 | 4.3 | 9.6 | 0.00 | 0.03 | 0.03 | 56 | 1012.1 |
| 20260507134403 | 72 | 218 | 4.3 | 9.6 | 0.00 | 0.03 | 0.03 | 56 | 1012.2 |
| 20260507134303 | 72 | 220 | 3.5 | 9.6 | 0.00 | 0.03 | 0.03 | 57 | 1012.1 |
| 20260507134203 | 72 | 218 | 3.5 | 9.6 | 0.00 | 0.03 | 0.03 | 56 | 1012.1 |
| 20260507134103 | 72 | 215 | 3.5 | 9.6 | 0.00 | 0.03 | 0.03 | 55 | 1012.2 |
| 20260507134003 | 72 | 218 | 3.5 | 8.7 | 0.00 | 0.03 | 0.03 | 53 | 1012.2 |
| 20260507133903 | 72 | 232 | 2.6 | 5.2 | 0.00 | 0.03 | 0.03 | 53 | 1012.2 |
| 20260507133803 | 72 | 236 | 2.6 | 6.1 | 0.00 | 0.03 | 0.03 | 55 | 1012.1 |
| 20260507133703 | 72 | 232 | 3.5 | 6.1 | 0.00 | 0.03 | 0.03 | 55 | 1012.1 |
| 20260507133604 | 72 | 228 | 3.5 | 6.1 | 0.00 | 0.03 | 0.03 | 56 | 1012.2 |
| 20260507133503 | 72 | 225 | 3.5 | 6.1 | 0.00 | 0.03 | 0.03 | 57 | 1012.2 |
| 20260507133403 | 72 | 221 | 3.5 | 6.1 | 0.00 | 0.03 | 0.03 | 57 | 1012.2 |
| 20260507133303 | 72 | 217 | 3.5 | 6.1 | 0.00 | 0.03 | 0.03 | 56 | 1012.2 |
| 20260507133203 | 72 | 219 | 3.5 | 6.1 | 0.00 | 0.03 | 0.03 | 56 | 1012.2 |
| 20260507133103 | 72 | 219 | 3.5 | 7.0 | 0.00 | 0.03 | 0.03 | 56 | 1012.3 |
| 20260507133003 | 71 | 221 | 3.5 | 7.8 | 0.00 | 0.03 | 0.03 | 56 | 1012.3 |
| 20260507132903 | 71 | 219 | 4.3 | 7.8 | 0.00 | 0.03 | 0.03 | 57 | 1012.3 |
| 20260507132803 | 72 | 220 | 4.3 | 8.7 | 0.00 | 0.03 | 0.03 | 57 | 1012.3 |
| 20260507132703 | 72 | 222 | 4.3 | 8.7 | 0.00 | 0.03 | 0.03 | 57 | 1012.3 |
| 20260507132603 | 72 | 223 | 4.3 | 8.7 | 0.00 | 0.03 | 0.03 | 58 | 1012.3 |
| 20260507132503 | 72 | 225 | 4.3 | 8.7 | 0.00 | 0.03 | 0.03 | 58 | 1012.2 |
| 20260507132403 | 72 | 229 | 4.3 | 8.7 | 0.00 | 0.03 | 0.03 | 57 | 1012.2 |
| 20260507132307 | 72 | 232 | 4.3 | 8.7 | 0.00 | 0.03 | 0.03 | 57 | 1012.3 |
| 20260507132203 | 72 | 233 | 4.3 | 8.7 | 0.00 | 0.03 | 0.03 | 55 | 1012.3 |
| 20260507132103 | 72 | 235 | 4.3 | 8.7 | 0.00 | 0.03 | 0.03 | 55 | 1012.3 |
| 20260507132003 | 73 | 237 | 4.3 | 8.7 | 0.00 | 0.03 | 0.03 | 56 | 1012.3 |
| 20260507131903 | 73 | 240 | 4.3 | 8.7 | 0.00 | 0.03 | 0.03 | 57 | 1012.3 |
| 20260507131803 | 73 | 243 | 3.5 | 7.8 | 0.00 | 0.03 | 0.03 | 57 | 1012.4 |
| 20260507131703 | 73 | 240 | 3.5 | 7.8 | 0.00 | 0.03 | 0.03 | 57 | 1012.4 |
| 20260507131603 | 73 | 239 | 4.3 | 7.8 | 0.00 | 0.03 | 0.03 | 56 | 1012.4 |
| 20260507131503 | 73 | 237 | 4.3 | 7.8 | 0.00 | 0.03 | 0.03 | 57 | 1012.4 |
| 20260507131403 | 73 | 238 | 3.5 | 7.8 | 0.00 | 0.03 | 0.03 | 58 | 1012.4 |
| 20260507131303 | 72 | 230 | 3.5 | 7.0 | 0.00 | 0.03 | 0.03 | 58 | 1012.3 |
| 20260507131203 | 72 | 224 | 3.5 | 7.0 | 0.00 | 0.03 | 0.03 | 58 | 1012.3 |
| 20260507131103 | 72 | 216 | 3.5 | 7.0 | 0.00 | 0.03 | 0.03 | 58 | 1012.4 |
| 20260507131003 | 72 | 210 | 4.3 | 7.0 | 0.00 | 0.03 | 0.03 | 59 | 1012.4 |
| 20260507130903 | 72 | 206 | 4.3 | 7.0 | 0.00 | 0.03 | 0.03 | 58 | 1012.4 |
| 20260507130803 | 72 | 205 | 3.5 | 7.0 | 0.00 | 0.03 | 0.03 | 57 | 1012.4 |
| 20260507130703 | 72 | 206 | 3.5 | 7.0 | 0.00 | 0.03 | 0.03 | 58 | 1012.3 |
| 20260507130603 | 72 | 203 | 3.5 | 7.0 | 0.00 | 0.03 | 0.03 | 58 | 1012.3 |
| 20260507130503 | 72 | 208 | 3.5 | 7.0 | 0.00 | 0.03 | 0.03 | 59 | 1012.4 |
| 20260507130403 | 71 | 204 | 3.5 | 7.0 | 0.00 | 0.03 | 0.03 | 59 | 1012.4 |
| 20260507130303 | 71 | 206 | 3.5 | 7.0 | 0.00 | 0.03 | 0.03 | 58 | 1012.4 |
| 20260507130203 | 72 | 207 | 3.5 | 7.0 | 0.00 | 0.03 | 0.03 | 58 | 1012.4 |
| 20260507130103 | 72 | 211 | 3.5 | 7.0 | 0.00 | 0.03 | 0.03 | 58 | 1012.4 |
| 20260507130004 | 72 | 219 | 3.5 | 7.0 | 0.00 | 0.03 | 0.03 | 57 | 1012.4 |
| 20260507125903 | 72 | 222 | 3.5 | 7.0 | 0.00 | 0.03 | 0.03 | 58 | 1012.4 |
| 20260507125803 | 72 | 226 | 3.5 | 7.8 | 0.00 | 0.03 | 0.03 | 57 | 1012.4 |
| 20260507125703 | 72 | 227 | 3.5 | 7.8 | 0.00 | 0.03 | 0.03 | 58 | 1012.4 |
| 20260507125603 | 71 | 231 | 4.3 | 8.7 | 0.00 | 0.03 | 0.03 | 59 | 1012.4 |
| 20260507125503 | 71 | 229 | 4.3 | 8.7 | 0.00 | 0.03 | 0.03 | 60 | 1012.4 |
| 20260507125404 | 71 | 228 | 4.3 | 8.7 | 0.00 | 0.03 | 0.03 | 59 | 1012.5 |
| 20260507125306 | 71 | 230 | 4.3 | 8.7 | 0.00 | 0.03 | 0.03 | 58 | 1012.5 |
| 20260507125203 | 71 | 230 | 4.3 | 8.7 | 0.00 | 0.03 | 0.03 | 59 | 1012.4 |
| 20260507125103 | 71 | 231 | 4.3 | 8.7 | 0.00 | 0.03 | 0.03 | 58 | 1012.4 |
| 20260507125003 | 71 | 230 | 3.5 | 8.7 | 0.00 | 0.03 | 0.03 | 59 | 1012.4 |
| 20260507124903 | 71 | 228 | 3.5 | 8.7 | 0.00 | 0.03 | 0.03 | 59 | 1012.4 |
| 20260507124803 | 71 | 226 | 3.5 | 8.7 | 0.00 | 0.03 | 0.03 | 59 | 1012.4 |
| 20260507124703 | 71 | 228 | 3.5 | 8.7 | 0.00 | 0.03 | 0.03 | 59 | 1012.4 |
| 20260507124603 | 71 | 225 | 2.6 | 7.8 | 0.00 | 0.03 | 0.03 | 60 | 1012.4 |
| 20260507124503 | 71 | 226 | 2.6 | 6.1 | 0.00 | 0.03 | 0.03 | 59 | 1012.5 |
| 20260507124403 | 71 | 232 | 2.6 | 6.1 | 0.00 | 0.03 | 0.03 | 60 | 1012.5 |
| 20260507124303 | 70 | 228 | 2.6 | 6.1 | 0.00 | 0.03 | 0.03 | 61 | 1012.5 |
| 20260507124203 | 70 | 231 | 3.5 | 7.8 | 0.00 | 0.03 | 0.03 | 60 | 1012.5 |
| 20260507124103 | 70 | 227 | 3.5 | 7.8 | 0.00 | 0.03 | 0.03 | 59 | 1012.5 |
| 20260507124003 | 71 | 226 | 3.5 | 7.8 | 0.00 | 0.03 | 0.03 | 58 | 1012.5 |
| 20260507123903 | 71 | 226 | 4.3 | 7.8 | 0.00 | 0.03 | 0.03 | 59 | 1012.5 |
| 20260507123803 | 71 | 225 | 4.3 | 7.8 | 0.00 | 0.03 | 0.03 | 60 | 1012.5 |
| 20260507123703 | 71 | 222 | 4.3 | 7.8 | 0.00 | 0.03 | 0.03 | 60 | 1012.5 |
| 20260507123603 | 71 | 223 | 4.3 | 7.8 | 0.00 | 0.03 | 0.03 | 60 | 1012.6 |
| 20260507123503 | 71 | 225 | 5.2 | 7.8 | 0.00 | 0.03 | 0.03 | 59 | 1012.6 |
| 20260507123403 | 71 | 230 | 5.2 | 7.8 | 0.00 | 0.03 | 0.03 | 59 | 1012.6 |
| 20260507123303 | 71 | 235 | 5.2 | 7.8 | 0.00 | 0.03 | 0.03 | 58 | 1012.6 |
| 20260507123203 | 71 | 236 | 5.2 | 7.8 | 0.00 | 0.03 | 0.03 | 58 | 1012.6 |
| 20260507123104 | 72 | 239 | 4.3 | 7.8 | 0.00 | 0.03 | 0.03 | 58 | 1012.7 |
| 20260507123003 | 72 | 245 | 4.3 | 7.8 | 0.00 | 0.03 | 0.03 | 60 | 1012.7 |
| 20260507122903 | 72 | 252 | 4.3 | 7.8 | 0.00 | 0.03 | 0.03 | 60 | 1012.6 |
| 20260507122804 | 72 | 254 | 4.3 | 7.8 | 0.00 | 0.03 | 0.03 | 60 | 1012.6 |
| 20260507122705 | 72 | 255 | 4.3 | 7.8 | 0.00 | 0.03 | 0.03 | 59 | 1012.6 |
| 20260507122603 | 72 | 254 | 4.3 | 7.8 | 0.00 | 0.03 | 0.03 | 59 | 1012.6 |
| 20260507122503 | 71 | 249 | 4.3 | 7.8 | 0.00 | 0.03 | 0.03 | 59 | 1012.6 |
| 20260507122403 | 71 | 240 | 3.5 | 7.8 | 0.00 | 0.03 | 0.03 | 59 | 1012.6 |
| 20260507122306 | 71 | 235 | 3.5 | 7.8 | 0.00 | 0.03 | 0.03 | 61 | 1012.6 |
| 20260507122203 | 71 | 236 | 3.5 | 7.8 | 0.00 | 0.03 | 0.03 | 61 | 1012.6 |
| 20260507122103 | 70 | 240 | 3.5 | 7.8 | 0.00 | 0.03 | 0.03 | 61 | 1012.6 |
| 20260507122004 | 70 | 236 | 3.5 | 7.8 | 0.00 | 0.03 | 0.03 | 61 | 1012.6 |
| 20260507121903 | 71 | 229 | 3.5 | 7.8 | 0.00 | 0.03 | 0.03 | 60 | 1012.6 |
| 20260507121803 | 71 | 218 | 3.5 | 8.7 | 0.00 | 0.03 | 0.03 | 61 | 1012.6 |
| 20260507121703 | 71 | 212 | 3.5 | 8.7 | 0.00 | 0.03 | 0.03 | 61 | 1012.6 |
| 20260507121603 | 71 | 207 | 3.5 | 8.7 | 0.00 | 0.03 | 0.03 | 60 | 1012.6 |
| 20260507121504 | 71 | 207 | 4.3 | 8.7 | 0.00 | 0.03 | 0.03 | 60 | 1012.6 |
| 20260507121403 | 71 | 206 | 4.3 | 8.7 | 0.00 | 0.03 | 0.03 | 60 | 1012.6 |
| 20260507121303 | 71 | 211 | 4.3 | 8.7 | 0.00 | 0.03 | 0.03 | 61 | 1012.7 |
| 20260507121203 | 70 | 211 | 4.3 | 8.7 | 0.00 | 0.03 | 0.03 | 61 | 1012.7 |
| 20260507121103 | 70 | 209 | 4.3 | 8.7 | 0.00 | 0.03 | 0.03 | 60 | 1012.6 |
| 20260507121003 | 70 | 209 | 4.3 | 8.7 | 0.00 | 0.03 | 0.03 | 60 | 1012.6 |
| 20260507120903 | 71 | 209 | 4.3 | 8.7 | 0.00 | 0.03 | 0.03 | 59 | 1012.7 |
| 20260507120803 | 71 | 211 | 4.3 | 7.8 | 0.00 | 0.03 | 0.03 | 59 | 1012.8 |
| 20260507120703 | 71 | 213 | 4.3 | 7.8 | 0.00 | 0.03 | 0.03 | 59 | 1012.8 |
| 20260507120603 | 71 | 219 | 3.5 | 7.8 | 0.00 | 0.03 | 0.03 | 60 | 1012.7 |
| 20260507120503 | 71 | 228 | 3.5 | 7.0 | 0.00 | 0.03 | 0.03 | 60 | 1012.7 |
| 20260507120403 | 71 | 240 | 3.5 | 7.0 | 0.00 | 0.03 | 0.03 | 61 | 1012.7 |
| 20260507120303 | 71 | 245 | 3.5 | 7.0 | 0.00 | 0.03 | 0.03 | 61 | 1012.7 |
| 20260507120203 | 70 | 248 | 3.5 | 7.8 | 0.00 | 0.03 | 0.03 | 61 | 1012.7 |
| 20260507120103 | 70 | 251 | 3.5 | 7.8 | 0.00 | 0.03 | 0.03 | 60 | 1012.7 |
| 20260507120004 | 70 | 255 | 3.5 | 7.8 | 0.00 | 0.03 | 0.03 | 59 | 1012.7 |
| 20260507115903 | 70 | 263 | 3.5 | 7.8 | 0.00 | 0.03 | 0.03 | 59 | 1012.7 |
| 20260507115803 | 71 | 266 | 3.5 | 7.8 | 0.00 | 0.03 | 0.03 | 58 | 1012.7 |
| 20260507115703 | 71 | 266 | 4.3 | 8.7 | 0.00 | 0.03 | 0.03 | 58 | 1012.7 |
| 20260507115603 | 71 | 266 | 4.3 | 10.4 | 0.00 | 0.03 | 0.03 | 57 | 1012.7 |
| 20260507115503 | 72 | 264 | 4.3 | 10.4 | 0.00 | 0.03 | 0.03 | 58 | 1012.8 |
| 20260507115403 | 72 | 261 | 4.3 | 10.4 | 0.00 | 0.03 | 0.03 | 58 | 1012.8 |
| 20260507115306 | 72 | 261 | 4.3 | 10.4 | 0.00 | 0.03 | 0.03 | 58 | 1012.7 |
| 20260507115203 | 72 | 261 | 3.5 | 10.4 | 0.00 | 0.03 | 0.03 | 58 | 1012.7 |
| 20260507115103 | 72 | 259 | 4.3 | 10.4 | 0.00 | 0.03 | 0.03 | 57 | 1012.8 |
| 20260507115003 | 72 | 253 | 4.3 | 10.4 | 0.00 | 0.03 | 0.03 | 56 | 1012.9 |
| 20260507114904 | 72 | 248 | 4.3 | 10.4 | 0.00 | 0.03 | 0.03 | 57 | 1012.9 |
| 20260507114803 | 72 | 248 | 4.3 | 10.4 | 0.00 | 0.03 | 0.03 | 58 | 1012.9 |
| 20260507114703 | 72 | 247 | 4.3 | 10.4 | 0.00 | 0.03 | 0.03 | 58 | 1012.7 |
| 20260507114603 | 72 | 243 | 4.3 | 9.6 | 0.00 | 0.03 | 0.03 | 60 | 1012.7 |
| 20260507114503 | 71 | 237 | 3.5 | 7.8 | 0.00 | 0.03 | 0.03 | 61 | 1012.8 |
| 20260507114403 | 71 | 237 | 2.6 | 7.8 | 0.00 | 0.03 | 0.03 | 61 | 1012.8 |
| 20260507114303 | 71 | 236 | 3.5 | 7.8 | 0.00 | 0.03 | 0.03 | 59 | 1012.8 |
| 20260507114203 | 72 | 242 | 3.5 | 7.8 | 0.00 | 0.03 | 0.03 | 59 | 1012.8 |
| 20260507114103 | 72 | 246 | 3.5 | 7.8 | 0.00 | 0.03 | 0.03 | 60 | 1012.8 |
| 20260507114003 | 72 | 248 | 3.5 | 7.8 | 0.00 | 0.03 | 0.03 | 61 | 1012.8 |
| 20260507113903 | 72 | 244 | 3.5 | 8.7 | 0.00 | 0.03 | 0.03 | 60 | 1012.8 |
| 20260507113803 | 72 | 236 | 3.5 | 8.7 | 0.00 | 0.03 | 0.03 | 61 | 1012.8 |
| 20260507113703 | 71 | 233 | 3.5 | 8.7 | 0.00 | 0.03 | 0.03 | 60 | 1013.0 |
| 20260507113603 | 71 | 238 | 3.5 | 8.7 | 0.00 | 0.03 | 0.03 | 59 | 1013.0 |
| 20260507113503 | 71 | 241 | 3.5 | 8.7 | 0.00 | 0.03 | 0.03 | 59 | 1012.9 |
| 20260507113403 | 71 | 243 | 4.3 | 8.7 | 0.00 | 0.03 | 0.03 | 60 | 1012.9 |
| 20260507113303 | 71 | 246 | 4.3 | 8.7 | 0.00 | 0.03 | 0.03 | 61 | 1012.9 |
| 20260507113203 | 71 | 248 | 4.3 | 8.7 | 0.00 | 0.03 | 0.03 | 60 | 1013.0 |
| 20260507113103 | 71 | 249 | 4.3 | 8.7 | 0.00 | 0.03 | 0.03 | 59 | 1013.0 |
| 20260507113004 | 71 | 254 | 4.3 | 8.7 | 0.00 | 0.03 | 0.03 | 59 | 1012.9 |
| 20260507112903 | 71 | 262 | 4.3 | 7.8 | 0.00 | 0.03 | 0.03 | 60 | 1012.9 |
| 20260507112803 | 71 | 265 | 3.5 | 7.8 | 0.00 | 0.03 | 0.03 | 60 | 1012.9 |
| 20260507112703 | 71 | 264 | 3.5 | 7.8 | 0.00 | 0.03 | 0.03 | 60 | 1012.9 |
| 20260507112603 | 71 | 259 | 3.5 | 7.8 | 0.00 | 0.03 | 0.03 | 60 | 1012.9 |
| 20260507112503 | 70 | 255 | 3.5 | 7.8 | 0.00 | 0.03 | 0.03 | 60 | 1012.9 |
| 20260507112403 | 70 | 251 | 3.5 | 7.8 | 0.00 | 0.03 | 0.03 | 60 | 1013.0 |
| 20260507112306 | 71 | 250 | 3.5 | 7.8 | 0.00 | 0.03 | 0.03 | 61 | 1013.0 |
| 20260507112203 | 71 | 249 | 3.5 | 6.1 | 0.00 | 0.03 | 0.03 | 60 | 1013.0 |
| 20260507112103 | 71 | 249 | 3.5 | 6.1 | 0.00 | 0.03 | 0.03 | 60 | 1013.0 |
| 20260507112003 | 71 | 245 | 3.5 | 6.1 | 0.00 | 0.03 | 0.03 | 60 | 1013.0 |
| 20260507111904 | 71 | 243 | 3.5 | 6.1 | 0.00 | 0.03 | 0.03 | 59 | 1013.0 |
| 20260507111803 | 71 | 241 | 3.5 | 6.1 | 0.00 | 0.03 | 0.03 | 60 | 1013.0 |
| 20260507111704 | 71 | 243 | 2.6 | 6.1 | 0.00 | 0.03 | 0.03 | 61 | 1013.0 |
| 20260507111603 | 71 | 241 | 3.5 | 7.0 | 0.00 | 0.03 | 0.03 | 61 | 1013.1 |
| 20260507111503 | 70 | 237 | 3.5 | 7.0 | 0.00 | 0.03 | 0.03 | 61 | 1013.1 |
| 20260507111403 | 70 | 233 | 3.5 | 8.7 | 0.00 | 0.03 | 0.03 | 61 | 1013.2 |
| 20260507111303 | 70 | 225 | 3.5 | 8.7 | 0.00 | 0.03 | 0.03 | 61 | 1013.2 |
| 20260507111203 | 70 | 223 | 3.5 | 8.7 | 0.00 | 0.03 | 0.03 | 62 | 1013.2 |
| 20260507111103 | 70 | 218 | 3.5 | 8.7 | 0.00 | 0.03 | 0.03 | 61 | 1013.2 |
| 20260507111003 | 70 | 218 | 4.3 | 8.7 | 0.00 | 0.03 | 0.03 | 62 | 1013.2 |
| 20260507110903 | 69 | 220 | 4.3 | 8.7 | 0.00 | 0.03 | 0.03 | 61 | 1013.1 |
| 20260507110803 | 70 | 224 | 4.3 | 8.7 | 0.00 | 0.03 | 0.03 | 60 | 1013.1 |
| 20260507110703 | 70 | 226 | 4.3 | 8.7 | 0.00 | 0.03 | 0.03 | 60 | 1013.2 |
| 20260507110603 | 70 | 227 | 4.3 | 8.7 | 0.00 | 0.03 | 0.03 | 60 | 1013.1 |
| 20260507110503 | 70 | 236 | 4.3 | 8.7 | 0.00 | 0.03 | 0.03 | 61 | 1013.1 |
| 20260507110403 | 70 | 242 | 3.5 | 8.7 | 0.00 | 0.03 | 0.03 | 60 | 1013.3 |
| 20260507110303 | 70 | 252 | 3.5 | 7.8 | 0.00 | 0.03 | 0.03 | 61 | 1013.3 |
| 20260507110203 | 70 | 251 | 3.5 | 7.8 | 0.00 | 0.03 | 0.03 | 60 | 1013.2 |
| 20260507110103 | 70 | 258 | 3.5 | 7.8 | 0.00 | 0.03 | 0.03 | 61 | 1013.3 |
| 20260507110004 | 70 | 261 | 3.5 | 7.8 | 0.00 | 0.03 | 0.03 | 62 | 1013.3 |
| 20260507105903 | 69 | 261 | 3.5 | 7.8 | 0.00 | 0.03 | 0.03 | 63 | 1013.3 |
| 20260507105803 | 69 | 259 | 3.5 | 7.8 | 0.00 | 0.03 | 0.03 | 63 | 1013.3 |
| 20260507105703 | 69 | 258 | 3.5 | 7.8 | 0.00 | 0.03 | 0.03 | 63 | 1013.3 |
| 20260507105603 | 69 | 257 | 3.5 | 7.8 | 0.00 | 0.03 | 0.03 | 64 | 1013.4 |
| 20260507105503 | 68 | 252 | 3.5 | 7.0 | 0.00 | 0.03 | 0.03 | 64 | 1013.4 |
| 20260507105403 | 68 | 251 | 3.5 | 7.0 | 0.00 | 0.03 | 0.03 | 64 | 1013.4 |
| 20260507105306 | 68 | 248 | 3.5 | 7.0 | 0.00 | 0.03 | 0.03 | 64 | 1013.4 |
| 20260507105203 | 68 | 249 | 3.5 | 7.0 | 0.00 | 0.03 | 0.03 | 63 | 1013.4 |
| 20260507105103 | 68 | 247 | 3.5 | 7.0 | 0.00 | 0.03 | 0.03 | 63 | 1013.4 |
| 20260507105003 | 68 | 244 | 3.5 | 7.0 | 0.00 | 0.03 | 0.03 | 62 | 1013.4 |
| 20260507104903 | 69 | 244 | 3.5 | 7.0 | 0.00 | 0.03 | 0.03 | 62 | 1013.4 |
| 20260507104803 | 69 | 247 | 3.5 | 7.0 | 0.00 | 0.03 | 0.03 | 62 | 1013.5 |
| 20260507104703 | 69 | 248 | 3.5 | 7.0 | 0.00 | 0.03 | 0.03 | 62 | 1013.5 |
| 20260507104603 | 70 | 244 | 3.5 | 7.0 | 0.00 | 0.03 | 0.03 | 61 | 1013.4 |
| 20260507104504 | 70 | 245 | 3.5 | 7.0 | 0.00 | 0.03 | 0.03 | 61 | 1013.4 |
| 20260507104403 | 70 | 247 | 3.5 | 7.0 | 0.00 | 0.03 | 0.03 | 61 | 1013.5 |
| 20260507104303 | 70 | 248 | 2.6 | 7.0 | 0.00 | 0.03 | 0.03 | 62 | 1013.5 |
| 20260507104203 | 70 | 250 | 2.6 | 7.0 | 0.00 | 0.03 | 0.03 | 61 | 1013.5 |
| 20260507104103 | 70 | 250 | 2.6 | 7.0 | 0.00 | 0.03 | 0.03 | 62 | 1013.5 |
| 20260507104003 | 70 | 252 | 2.6 | 7.0 | 0.00 | 0.03 | 0.03 | 61 | 1013.5 |
| 20260507103903 | 70 | 256 | 2.6 | 7.0 | 0.00 | 0.03 | 0.03 | 62 | 1013.5 |
| 20260507103803 | 70 | 252 | 2.6 | 7.0 | 0.00 | 0.03 | 0.03 | 62 | 1013.6 |
| 20260507103703 | 69 | 248 | 2.6 | 7.0 | 0.00 | 0.03 | 0.03 | 62 | 1013.6 |
| 20260507103603 | 69 | 251 | 2.6 | 6.1 | 0.00 | 0.03 | 0.03 | 62 | 1013.6 |
| 20260507103503 | 69 | 252 | 2.6 | 6.1 | 0.00 | 0.03 | 0.03 | 62 | 1013.7 |
| 20260507103403 | 69 | 253 | 2.6 | 6.1 | 0.00 | 0.03 | 0.03 | 62 | 1013.7 |
| 20260507103303 | 69 | 258 | 3.5 | 7.8 | 0.00 | 0.03 | 0.03 | 62 | 1013.6 |
| 20260507103203 | 69 | 261 | 3.5 | 7.8 | 0.00 | 0.03 | 0.03 | 62 | 1013.6 |
| 20260507103103 | 69 | 261 | 3.5 | 7.8 | 0.00 | 0.03 | 0.03 | 63 | 1013.6 |
| 20260507103003 | 69 | 262 | 3.5 | 7.8 | 0.00 | 0.03 | 0.03 | 62 | 1013.6 |
| 20260507102903 | 69 | 262 | 3.5 | 7.8 | 0.00 | 0.03 | 0.03 | 62 | 1013.6 |
| 20260507102803 | 69 | 266 | 3.5 | 7.8 | 0.00 | 0.03 | 0.03 | 62 | 1013.6 |
| 20260507102703 | 69 | 270 | 3.5 | 7.8 | 0.00 | 0.03 | 0.03 | 62 | 1013.5 |
| 20260507102603 | 69 | 271 | 3.5 | 7.8 | 0.00 | 0.03 | 0.03 | 61 | 1013.5 |
| 20260507102503 | 70 | 270 | 3.5 | 7.8 | 0.00 | 0.03 | 0.03 | 61 | 1013.7 |
| 20260507102403 | 70 | 267 | 3.5 | 7.8 | 0.00 | 0.03 | 0.03 | 61 | 1013.7 |
| 20260507102306 | 70 | 266 | 3.5 | 7.8 | 0.00 | 0.03 | 0.03 | 61 | 1013.7 |
| 20260507102203 | 70 | 265 | 3.5 | 7.8 | 0.00 | 0.03 | 0.03 | 60 | 1013.7 |
| 20260507102103 | 70 | 267 | 2.6 | 7.8 | 0.00 | 0.03 | 0.03 | 61 | 1013.7 |
| 20260507102003 | 70 | 267 | 2.6 | 7.8 | 0.00 | 0.03 | 0.03 | 61 | 1013.6 |
| 20260507101903 | 70 | 257 | 2.6 | 7.8 | 0.00 | 0.03 | 0.03 | 61 | 1013.6 |
| 20260507101803 | 70 | 249 | 2.6 | 8.7 | 0.00 | 0.03 | 0.03 | 60 | 1013.6 |
| 20260507101703 | 70 | 241 | 2.6 | 8.7 | 0.00 | 0.03 | 0.03 | 60 | 1013.6 |
| 20260507101603 | 70 | 234 | 2.6 | 8.7 | 0.00 | 0.03 | 0.03 | 61 | 1013.6 |
| 20260507101503 | 70 | 230 | 2.6 | 8.7 | 0.00 | 0.03 | 0.03 | 62 | 1013.7 |
| 20260507101403 | 70 | 226 | 2.6 | 8.7 | 0.00 | 0.03 | 0.03 | 62 | 1013.7 |
| 20260507101303 | 69 | 225 | 2.6 | 8.7 | 0.00 | 0.03 | 0.03 | 61 | 1013.8 |
| 20260507101203 | 69 | 218 | 3.5 | 8.7 | 0.00 | 0.03 | 0.03 | 63 | 1013.7 |
| 20260507101103 | 69 | 209 | 3.5 | 8.7 | 0.00 | 0.03 | 0.03 | 63 | 1013.7 |
| 20260507101003 | 69 | 204 | 3.5 | 8.7 | 0.00 | 0.03 | 0.03 | 63 | 1013.7 |
| 20260507100903 | 69 | 201 | 3.5 | 8.7 | 0.00 | 0.03 | 0.03 | 63 | 1013.6 |
| 20260507100803 | 68 | 206 | 3.5 | 7.0 | 0.00 | 0.03 | 0.03 | 62 | 1013.6 |
| 20260507100703 | 68 | 208 | 3.5 | 7.0 | 0.00 | 0.03 | 0.03 | 61 | 1013.7 |
| 20260507100603 | 69 | 211 | 3.5 | 7.0 | 0.00 | 0.03 | 0.03 | 61 | 1013.7 |
| 20260507100503 | 69 | 213 | 3.5 | 7.0 | 0.00 | 0.03 | 0.03 | 62 | 1013.7 |
| 20260507100403 | 69 | 215 | 3.5 | 7.0 | 0.00 | 0.03 | 0.03 | 62 | 1013.6 |
| 20260507100303 | 69 | 208 | 2.6 | 7.0 | 0.00 | 0.03 | 0.03 | 62 | 1013.6 |
| 20260507100203 | 69 | 216 | 2.6 | 7.0 | 0.00 | 0.03 | 0.03 | 63 | 1013.6 |
| 20260507100103 | 69 | 230 | 2.6 | 7.0 | 0.00 | 0.03 | 0.03 | 63 | 1013.6 |
| 20260507100004 | 68 | 239 | 2.6 | 7.0 | 0.00 | 0.03 | 0.03 | 62 | 1013.5 |
| 20260507095903 | 68 | 249 | 2.6 | 7.0 | 0.00 | 0.03 | 0.03 | 63 | 1013.6 |
| 20260507095803 | 68 | 238 | 2.6 | 8.7 | 0.00 | 0.03 | 0.03 | 61 | 1013.6 |
| 20260507095703 | 68 | 229 | 3.5 | 8.7 | 0.00 | 0.03 | 0.03 | 62 | 1013.7 |
| 20260507095603 | 69 | 223 | 3.5 | 8.7 | 0.00 | 0.03 | 0.03 | 62 | 1013.7 |
| 20260507095503 | 68 | 218 | 3.5 | 8.7 | 0.00 | 0.03 | 0.03 | 62 | 1013.7 |
| 20260507095403 | 68 | 216 | 3.5 | 8.7 | 0.00 | 0.03 | 0.03 | 62 | 1013.7 |
| 20260507095305 | 68 | 221 | 3.5 | 8.7 | 0.00 | 0.03 | 0.03 | 63 | 1013.7 |
| 20260507095203 | 68 | 223 | 3.5 | 8.7 | 0.00 | 0.03 | 0.03 | 62 | 1013.7 |
| 20260507095103 | 68 | 225 | 3.5 | 8.7 | 0.00 | 0.03 | 0.03 | 63 | 1013.7 |
| 20260507095003 | 68 | 220 | 3.5 | 8.7 | 0.00 | 0.03 | 0.03 | 62 | 1013.7 |
| 20260507094903 | 68 | 216 | 3.5 | 8.7 | 0.00 | 0.03 | 0.03 | 61 | 1013.7 |
| 20260507094803 | 68 | 223 | 2.6 | 7.8 | 0.00 | 0.03 | 0.03 | 62 | 1013.7 |
| 20260507094703 | 68 | 235 | 2.6 | 7.0 | 0.00 | 0.03 | 0.03 | 61 | 1013.7 |
| 20260507094603 | 68 | 241 | 2.6 | 7.0 | 0.00 | 0.03 | 0.03 | 61 | 1013.7 |
| 20260507094503 | 68 | 247 | 2.6 | 7.0 | 0.00 | 0.03 | 0.03 | 62 | 1013.7 |
| 20260507094403 | 68 | 245 | 3.5 | 7.8 | 0.00 | 0.03 | 0.03 | 62 | 1013.7 |
| 20260507094303 | 68 | 242 | 3.5 | 7.8 | 0.00 | 0.03 | 0.03 | 62 | 1013.7 |
| 20260507094203 | 68 | 239 | 2.6 | 7.8 | 0.00 | 0.03 | 0.03 | 62 | 1013.7 |
| 20260507094103 | 68 | 235 | 2.6 | 7.8 | 0.00 | 0.03 | 0.03 | 62 | 1013.7 |
| 20260507094003 | 68 | 237 | 2.6 | 7.8 | 0.00 | 0.03 | 0.03 | 62 | 1013.7 |
| 20260507093903 | 68 | 242 | 2.6 | 7.8 | 0.00 | 0.03 | 0.03 | 63 | 1013.7 |
| 20260507093803 | 68 | 243 | 2.6 | 7.8 | 0.00 | 0.03 | 0.03 | 63 | 1013.7 |
| 20260507093703 | 67 | 240 | 2.6 | 7.8 | 0.00 | 0.03 | 0.03 | 63 | 1013.7 |
| 20260507093603 | 67 | 240 | 2.6 | 7.8 | 0.00 | 0.03 | 0.03 | 62 | 1013.7 |
| 20260507093503 | 67 | 239 | 1.7 | 7.8 | 0.00 | 0.03 | 0.03 | 63 | 1013.7 |
| 20260507093403 | 67 | 236 | 1.7 | 5.2 | 0.00 | 0.03 | 0.03 | 62 | 1013.8 |
| 20260507093303 | 67 | 236 | 1.7 | 5.2 | 0.00 | 0.03 | 0.03 | 62 | 1013.8 |
| 20260507093203 | 67 | 235 | 1.7 | 5.2 | 0.00 | 0.03 | 0.03 | 63 | 1013.8 |
| 20260507093103 | 67 | 237 | 1.7 | 5.2 | 0.00 | 0.03 | 0.03 | 62 | 1013.7 |
| 20260507093003 | 67 | 242 | 1.7 | 5.2 | 0.00 | 0.03 | 0.03 | 62 | 1013.7 |
| 20260507092903 | 67 | 245 | 1.7 | 5.2 | 0.00 | 0.03 | 0.03 | 62 | 1013.7 |
| 20260507092803 | 67 | 252 | 1.7 | 6.1 | 0.00 | 0.03 | 0.03 | 63 | 1013.7 |
| 20260507092703 | 67 | 260 | 1.7 | 6.1 | 0.00 | 0.03 | 0.03 | 63 | 1013.7 |
| 20260507092603 | 67 | 257 | 2.6 | 6.1 | 0.00 | 0.03 | 0.03 | 63 | 1013.7 |
| 20260507092503 | 67 | 259 | 2.6 | 6.1 | 0.00 | 0.03 | 0.03 | 62 | 1013.7 |
| 20260507092403 | 67 | 266 | 2.6 | 6.1 | 0.00 | 0.03 | 0.03 | 61 | 1013.7 |
| 20260507092306 | 67 | 264 | 2.6 | 6.1 | 0.00 | 0.03 | 0.03 | 62 | 1013.7 |
| 20260507092203 | 67 | 263 | 2.6 | 6.1 | 0.00 | 0.03 | 0.03 | 63 | 1013.7 |
| 20260507092103 | 67 | 257 | 2.6 | 6.1 | 0.00 | 0.03 | 0.03 | 64 | 1013.7 |
| 20260507092003 | 67 | 250 | 2.6 | 6.1 | 0.00 | 0.03 | 0.03 | 64 | 1013.7 |
| 20260507091903 | 67 | 243 | 2.6 | 6.1 | 0.00 | 0.03 | 0.03 | 64 | 1013.7 |
| 20260507091803 | 67 | 234 | 2.6 | 6.1 | 0.00 | 0.03 | 0.03 | 64 | 1013.7 |
| 20260507091703 | 67 | 209 | 1.7 | 5.2 | 0.00 | 0.03 | 0.03 | 65 | 1013.7 |
| 20260507091603 | 67 | 191 | 1.7 | 5.2 | 0.00 | 0.03 | 0.03 | 65 | 1013.6 |
| 20260507091503 | 66 | 173 | 1.7 | 5.2 | 0.00 | 0.03 | 0.03 | 66 | 1013.7 |
| 20260507091403 | 66 | 169 | 1.7 | 3.5 | 0.00 | 0.03 | 0.03 | 65 | 1013.7 |
| 20260507091303 | 66 | 183 | 1.7 | 3.5 | 0.00 | 0.03 | 0.03 | 65 | 1013.7 |
| 20260507091203 | 66 | 199 | 1.7 | 3.5 | 0.00 | 0.03 | 0.03 | 64 | 1013.7 |
| 20260507091103 | 66 | 210 | 1.7 | 3.5 | 0.00 | 0.03 | 0.03 | 64 | 1013.7 |
| 20260507091003 | 66 | 224 | 0.9 | 3.5 | 0.00 | 0.03 | 0.03 | 64 | 1013.6 |
| 20260507090903 | 67 | 241 | 0.9 | 3.5 | 0.00 | 0.03 | 0.03 | 65 | 1013.6 |
| 20260507090803 | 67 | 249 | 1.7 | 3.5 | 0.00 | 0.03 | 0.03 | 65 | 1013.7 |
| 20260507090703 | 67 | 253 | 1.7 | 4.3 | 0.00 | 0.03 | 0.03 | 65 | 1013.7 |
| 20260507090603 | 67 | 253 | 1.7 | 4.3 | 0.00 | 0.03 | 0.03 | 65 | 1013.6 |
| 20260507090503 | 67 | 256 | 1.7 | 4.3 | 0.00 | 0.03 | 0.03 | 65 | 1013.7 |
| 20260507090403 | 67 | 258 | 1.7 | 4.3 | 0.00 | 0.03 | 0.03 | 66 | 1013.7 |
| 20260507090303 | 67 | 261 | 1.7 | 4.3 | 0.00 | 0.03 | 0.03 | 65 | 1013.6 |
| 20260507090203 | 67 | 259 | 1.7 | 4.3 | 0.00 | 0.03 | 0.03 | 65 | 1013.6 |
| 20260507090005 | 66 | 264 | 1.7 | 4.3 | 0.00 | 0.03 | 0.03 | 66 | 1013.6 |
| 20260507085903 | 66 | 262 | 1.7 | 4.3 | 0.00 | 0.03 | 0.03 | 66 | 1013.6 |
| 20260507085803 | 66 | 262 | 1.7 | 4.3 | 0.00 | 0.03 | 0.03 | 65 | 1013.6 |
| 20260507085703 | 65 | 262 | 0.9 | 3.5 | 0.00 | 0.03 | 0.03 | 65 | 1013.6 |
| 20260507085603 | 66 | 264 | 0.9 | 3.5 | 0.00 | 0.03 | 0.03 | 66 | 1013.6 |
| 20260507085503 | 66 | 261 | 1.7 | 3.5 | 0.00 | 0.03 | 0.03 | 67 | 1013.6 |
| 20260507085403 | 66 | 254 | 1.7 | 3.5 | 0.00 | 0.03 | 0.03 | 69 | 1013.6 |
| 20260507085306 | 65 | 244 | 1.7 | 3.5 | 0.00 | 0.03 | 0.03 | 69 | 1013.5 |
| 20260507085204 | 65 | 240 | 0.9 | 3.5 | 0.00 | 0.03 | 0.03 | 69 | 1013.5 |
| 20260507085103 | 65 | 234 | 1.7 | 3.5 | 0.00 | 0.03 | 0.03 | 70 | 1013.5 |
| 20260507085003 | 64 | 229 | 1.7 | 3.5 | 0.00 | 0.03 | 0.03 | 70 | 1013.6 |
| 20260507084903 | 64 | 226 | 1.7 | 3.5 | 0.00 | 0.03 | 0.03 | 71 | 1013.5 |
| 20260507084803 | 64 | 219 | 1.7 | 3.5 | 0.00 | 0.03 | 0.03 | 72 | 1013.5 |
| 20260507084704 | 64 | 213 | 1.7 | 3.5 | 0.00 | 0.03 | 0.03 | 73 | 1013.6 |
| 20260507084603 | 63 | 209 | 1.7 | 3.5 | 0.00 | 0.03 | 0.03 | 73 | 1013.6 |
| 20260507084503 | 63 | 201 | 1.7 | 4.3 | 0.00 | 0.03 | 0.03 | 74 | 1013.5 |
| 20260507084403 | 63 | 198 | 1.7 | 4.3 | 0.00 | 0.03 | 0.03 | 75 | 1013.7 |
| 20260507084303 | 62 | 203 | 1.7 | 4.3 | 0.00 | 0.03 | 0.03 | 75 | 1013.7 |
| 20260507084203 | 62 | 204 | 1.7 | 4.3 | 0.00 | 0.03 | 0.03 | 74 | 1013.6 |
| 20260507084103 | 62 | 208 | 1.7 | 4.3 | 0.00 | 0.03 | 0.03 | 74 | 1013.6 |
| 20260507084003 | 61 | 210 | 1.7 | 4.3 | 0.00 | 0.03 | 0.03 | 75 | 1013.6 |
| 20260507083903 | 61 | 213 | 1.7 | 4.3 | 0.00 | 0.03 | 0.03 | 75 | 1013.6 |
| 20260507083803 | 61 | 215 | 1.7 | 4.3 | 0.00 | 0.03 | 0.03 | 74 | 1013.6 |
| 20260507083703 | 61 | 220 | 1.7 | 4.3 | 0.00 | 0.03 | 0.03 | 74 | 1013.6 |
| 20260507083603 | 61 | 224 | 1.7 | 4.3 | 0.00 | 0.03 | 0.03 | 74 | 1013.6 |
| 20260507083503 | 61 | 233 | 1.7 | 3.5 | 0.00 | 0.03 | 0.03 | 75 | 1013.6 |
| 20260507083404 | 61 | 239 | 0.9 | 3.5 | 0.00 | 0.03 | 0.03 | 75 | 1013.6 |
| 20260507083303 | 61 | 241 | 0.9 | 3.5 | 0.00 | 0.03 | 0.03 | 75 | 1013.6 |
| 20260507083203 | 61 | 244 | 0.9 | 3.5 | 0.00 | 0.03 | 0.03 | 76 | 1013.5 |
| 20260507083103 | 60 | 243 | 0.9 | 3.5 | 0.00 | 0.03 | 0.03 | 76 | 1013.6 |
| 20260507083003 | 60 | 241 | 0.9 | 3.5 | 0.00 | 0.03 | 0.03 | 76 | 1013.6 |
| 20260507082903 | 60 | 240 | 0.9 | 3.5 | 0.00 | 0.03 | 0.03 | 76 | 1013.5 |
| 20260507082803 | 60 | 246 | 0.9 | 3.5 | 0.00 | 0.03 | 0.03 | 77 | 1013.5 |
| 20260507082703 | 60 | 241 | 1.7 | 3.5 | 0.00 | 0.03 | 0.03 | 76 | 1013.6 |
| 20260507082603 | 60 | 240 | 1.7 | 3.5 | 0.00 | 0.03 | 0.03 | 76 | 1013.6 |
| 20260507082503 | 60 | 239 | 0.9 | 3.5 | 0.00 | 0.04 | 0.03 | 76 | 1013.6 |
| 20260507082403 | 59 | 237 | 1.7 | 3.5 | 0.00 | 0.04 | 0.03 | 76 | 1013.6 |
| 20260507082306 | 59 | 235 | 1.7 | 3.5 | 0.00 | 0.04 | 0.03 | 76 | 1013.6 |
| 20260507082203 | 59 | 232 | 0.9 | 3.5 | 0.00 | 0.04 | 0.03 | 76 | 1013.6 |
| 20260507082103 | 59 | 233 | 0.9 | 3.5 | 0.00 | 0.04 | 0.03 | 76 | 1013.7 |
| 20260507082003 | 59 | 233 | 0.9 | 3.5 | 0.00 | 0.05 | 0.03 | 76 | 1013.7 |
| 20260507081903 | 59 | 229 | 0.9 | 3.5 | 0.00 | 0.05 | 0.03 | 76 | 1013.6 |
| 20260507081803 | 59 | 220 | 0.9 | 3.5 | 0.00 | 0.05 | 0.03 | 76 | 1013.6 |
| 20260507081703 | 59 | 212 | 0.9 | 3.5 | 0.00 | 0.05 | 0.03 | 77 | 1013.6 |
| 20260507081603 | 59 | 210 | 0.9 | 3.5 | 0.00 | 0.06 | 0.03 | 77 | 1013.6 |
| 20260507081503 | 59 | 208 | 0.9 | 3.5 | 0.00 | 0.06 | 0.03 | 77 | 1013.6 |
| 20260507081403 | 59 | 203 | 1.7 | 3.5 | 0.00 | 0.06 | 0.03 | 77 | 1013.6 |
| 20260507081303 | 59 | 197 | 1.7 | 4.3 | 0.00 | 0.06 | 0.03 | 77 | 1013.6 |
| 20260507081203 | 59 | 193 | 1.7 | 4.3 | 0.00 | 0.06 | 0.03 | 77 | 1013.6 |
| 20260507081103 | 59 | 193 | 1.7 | 4.3 | 0.00 | 0.06 | 0.03 | 77 | 1013.5 |
| 20260507081003 | 59 | 193 | 1.7 | 4.3 | 0.00 | 0.06 | 0.03 | 77 | 1013.5 |
| 20260507080903 | 59 | 193 | 1.7 | 4.3 | 0.01 | 0.06 | 0.03 | 76 | 1013.5 |
| 20260507080804 | 59 | 192 | 1.7 | 4.3 | 0.01 | 0.06 | 0.03 | 77 | 1013.6 |
| 20260507080703 | 59 | 192 | 1.7 | 4.3 | 0.01 | 0.06 | 0.03 | 77 | 1013.6 |
| 20260507080603 | 59 | 192 | 1.7 | 4.3 | 0.01 | 0.07 | 0.03 | 77 | 1013.6 |
| 20260507080503 | 59 | 194 | 1.7 | 4.3 | 0.01 | 0.07 | 0.03 | 77 | 1013.6 |
| 20260507080403 | 59 | 196 | 1.7 | 4.3 | 0.01 | 0.07 | 0.03 | 77 | 1013.6 |
| 20260507080303 | 59 | 198 | 1.7 | 4.3 | 0.01 | 0.07 | 0.03 | 77 | 1013.6 |
| 20260507080203 | 59 | 201 | 1.7 | 3.5 | 0.01 | 0.08 | 0.03 | 77 | 1013.6 |
| 20260507080103 | 59 | 203 | 0.9 | 3.5 | 0.01 | 0.08 | 0.03 | 77 | 1013.5 |
| 20260507080005 | 59 | 211 | 0.9 | 3.5 | 0.01 | 0.08 | 0.03 | 77 | 1013.5 |
| 20260507075903 | 59 | 218 | 0.9 | 3.5 | 0.01 | 0.08 | 0.03 | 77 | 1013.5 |
| 20260507075804 | 59 | 221 | 0.9 | 3.5 | 0.01 | 0.08 | 0.03 | 77 | 1013.6 |
| 20260507075703 | 59 | 224 | 0.9 | 3.5 | 0.01 | 0.08 | 0.03 | 77 | 1013.6 |
| 20260507075603 | 59 | 231 | 0.9 | 3.5 | 0.01 | 0.09 | 0.03 | 77 | 1013.6 |
| 20260507075503 | 59 | 246 | 0.9 | 2.6 | 0.01 | 0.09 | 0.03 | 77 | 1013.7 |
| 20260507075403 | 59 | 253 | 0.9 | 2.6 | 0.01 | 0.09 | 0.03 | 77 | 1013.7 |
| 20260507075306 | 59 | 253 | 0.9 | 2.6 | 0.01 | 0.09 | 0.03 | 77 | 1013.6 |
| 20260507075203 | 59 | 253 | 0.9 | 2.6 | 0.01 | 0.09 | 0.03 | 77 | 1013.6 |
| 20260507075103 | 59 | 254 | 0.9 | 2.6 | 0.01 | 0.09 | 0.03 | 77 | 1013.7 |
| 20260507075003 | 59 | 253 | 0.9 | 2.6 | 0.01 | 0.09 | 0.03 | 77 | 1013.6 |
| 20260507074903 | 59 | 257 | 0.9 | 2.6 | 0.01 | 0.09 | 0.03 | 78 | 1013.6 |
| 20260507074803 | 59 | 260 | 0.0 | 1.7 | 0.01 | 0.09 | 0.03 | 78 | 1013.6 |
| 20260507074703 | 59 | 261 | 0.0 | 1.7 | 0.01 | 0.09 | 0.03 | 78 | 1013.6 |
| 20260507074603 | 58 | 284 | 0.9 | 1.7 | 0.01 | 0.10 | 0.03 | 77 | 1013.6 |
| 20260507074503 | 58 | 309 | 0.0 | 1.7 | 0.01 | 0.10 | 0.03 | 77 | 1013.6 |
| 20260507074403 | 58 | 328 | 0.0 | 1.7 | 0.01 | 0.10 | 0.03 | 78 | 1013.6 |
| 20260507074303 | 58 | 334 | 0.9 | 2.6 | 0.01 | 0.10 | 0.03 | 77 | 1013.6 |
| 20260507074203 | 58 | 332 | 0.9 | 2.6 | 0.01 | 0.11 | 0.03 | 77 | 1013.6 |
| 20260507074103 | 58 | 333 | 0.9 | 2.6 | 0.01 | 0.11 | 0.03 | 78 | 1013.6 |
| 20260507074003 | 58 | 333 | 0.9 | 2.6 | 0.01 | 0.11 | 0.03 | 78 | 1013.5 |
| 20260507073903 | 58 | 329 | 0.9 | 2.6 | 0.01 | 0.11 | 0.03 | 78 | 1013.5 |
| 20260507073803 | 58 | 325 | 0.9 | 2.6 | 0.01 | 0.11 | 0.03 | 77 | 1013.5 |
| 20260507073703 | 58 | 321 | 0.9 | 2.6 | 0.01 | 0.11 | 0.03 | 77 | 1013.5 |
| 20260507073603 | 58 | 308 | 0.9 | 2.6 | 0.01 | 0.12 | 0.03 | 77 | 1013.5 |
| 20260507073503 | 58 | 298 | 0.9 | 3.5 | 0.01 | 0.12 | 0.03 | 77 | 1013.5 |
| 20260507073403 | 58 | 295 | 0.9 | 3.5 | 0.01 | 0.12 | 0.03 | 77 | 1013.5 |
| 20260507073303 | 58 | 294 | 0.9 | 3.5 | 0.01 | 0.12 | 0.03 | 77 | 1013.4 |
| 20260507073203 | 59 | 298 | 0.9 | 3.5 | 0.01 | 0.12 | 0.03 | 77 | 1013.5 |
| 20260507073103 | 59 | 308 | 0.9 | 3.5 | 0.01 | 0.13 | 0.03 | 77 | 1013.5 |
| 20260507073003 | 59 | 317 | 0.9 | 3.5 | 0.01 | 0.13 | 0.03 | 78 | 1013.4 |
| 20260507072903 | 59 | 327 | 1.7 | 3.5 | 0.01 | 0.13 | 0.03 | 78 | 1013.4 |
| 20260507072803 | 59 | 340 | 1.7 | 3.5 | 0.01 | 0.13 | 0.03 | 79 | 1013.4 |
| 20260507072703 | 59 | 344 | 1.7 | 3.5 | 0.01 | 0.13 | 0.03 | 79 | 1013.4 |
| 20260507072603 | 59 | 346 | 1.7 | 3.5 | 0.01 | 0.13 | 0.03 | 79 | 1013.4 |
| 20260507072504 | 58 | 351 | 1.7 | 3.5 | 0.01 | 0.13 | 0.03 | 79 | 1013.4 |
| 20260507072404 | 58 | 353 | 1.7 | 3.5 | 0.01 | 0.13 | 0.03 | 79 | 1013.3 |
| 20260507072306 | 58 | 358 | 1.7 | 3.5 | 0.01 | 0.13 | 0.03 | 79 | 1013.3 |
| 20260507072203 | 58 | 359 | 1.7 | 3.5 | 0.01 | 0.13 | 0.03 | 79 | 1013.2 |
| 20260507072104 | 58 | 360 | 1.7 | 3.5 | 0.01 | 0.13 | 0.03 | 80 | 1013.2 |
| 20260507072003 | 58 | 360 | 1.7 | 3.5 | 0.01 | 0.13 | 0.03 | 80 | 1013.3 |
| 20260507071903 | 58 | 353 | 1.7 | 3.5 | 0.01 | 0.13 | 0.03 | 81 | 1013.2 |
| 20260507071803 | 58 | 341 | 1.7 | 2.6 | 0.01 | 0.13 | 0.03 | 81 | 1013.2 |
| 20260507071703 | 58 | 338 | 0.9 | 2.6 | 0.01 | 0.13 | 0.03 | 81 | 1013.2 |
| 20260507071604 | 58 | 333 | 0.9 | 2.6 | 0.01 | 0.13 | 0.03 | 82 | 1013.2 |
| 20260507071504 | 57 | 326 | 0.9 | 2.6 | 0.01 | 0.13 | 0.03 | 82 | 1013.3 |
| 20260507071403 | 57 | 316 | 0.9 | 2.6 | 0.01 | 0.13 | 0.03 | 82 | 1013.2 |
| 20260507071303 | 57 | 305 | 0.9 | 2.6 | 0.01 | 0.13 | 0.03 | 83 | 1013.2 |
| 20260507071203 | 57 | 290 | 0.9 | 2.6 | 0.01 | 0.13 | 0.03 | 83 | 1013.2 |
| 20260507071103 | 56 | 282 | 0.9 | 2.6 | 0.01 | 0.13 | 0.03 | 83 | 1013.2 |
| 20260507071003 | 56 | 282 | 0.9 | 2.6 | 0.01 | 0.13 | 0.03 | 83 | 1013.3 |
| 20260507070903 | 56 | 282 | 0.0 | 2.6 | 0.00 | 0.13 | 0.02 | 83 | 1013.2 |
| 20260507070803 | 56 | 282 | 0.0 | 2.6 | 0.00 | 0.13 | 0.02 | 83 | 1013.2 |
| 20260507070703 | 56 | 282 | 0.0 | 2.6 | 0.00 | 0.13 | 0.02 | 83 | 1013.2 |
| 20260507070603 | 56 | 280 | 0.0 | 2.6 | 0.00 | 0.13 | 0.02 | 83 | 1013.2 |
| 20260507070503 | 56 | 274 | 0.0 | 2.6 | 0.00 | 0.13 | 0.02 | 83 | 1013.2 |
| 20260507070403 | 56 | 270 | 0.0 | 2.6 | 0.00 | 0.13 | 0.02 | 83 | 1013.2 |
| 20260507070303 | 56 | 267 | 0.9 | 2.6 | 0.00 | 0.13 | 0.02 | 83 | 1013.2 |
| 20260507070203 | 56 | 265 | 0.9 | 2.6 | 0.00 | 0.13 | 0.02 | 84 | 1013.2 |
| 20260507070008 | 56 | 262 | 0.9 | 2.6 | 0.00 | 0.13 | 0.02 | 84 | 1013.2 |
| 20260507065903 | 55 | 263 | 0.9 | 2.6 | 0.00 | 0.13 | 0.02 | 84 | 1013.2 |
| 20260507065803 | 55 | 263 | 0.9 | 2.6 | 0.00 | 0.13 | 0.02 | 84 | 1013.2 |
| 20260507065703 | 55 | 262 | 0.9 | 2.6 | 0.00 | 0.13 | 0.02 | 84 | 1013.3 |
| 20260507065603 | 55 | 260 | 0.9 | 2.6 | 0.00 | 0.13 | 0.02 | 84 | 1013.3 |
| 20260507065503 | 55 | 259 | 0.9 | 2.6 | 0.00 | 0.13 | 0.02 | 84 | 1013.3 |
| 20260507065403 | 55 | 261 | 1.7 | 3.5 | 0.00 | 0.13 | 0.02 | 84 | 1013.3 |
| 20260507065306 | 55 | 263 | 1.7 | 3.5 | 0.00 | 0.13 | 0.02 | 84 | 1013.3 |
| 20260507065203 | 55 | 265 | 1.7 | 3.5 | 0.00 | 0.13 | 0.02 | 84 | 1013.3 |
| 20260507065103 | 55 | 264 | 1.7 | 3.5 | 0.00 | 0.13 | 0.02 | 84 | 1013.3 |
| 20260507065003 | 55 | 267 | 1.7 | 3.5 | 0.00 | 0.13 | 0.02 | 84 | 1013.3 |
| 20260507064903 | 55 | 268 | 1.7 | 3.5 | 0.00 | 0.13 | 0.02 | 84 | 1013.2 |
| 20260507064803 | 55 | 268 | 1.7 | 3.5 | 0.00 | 0.13 | 0.02 | 84 | 1013.3 |
| 20260507064703 | 55 | 269 | 1.7 | 3.5 | 0.00 | 0.13 | 0.02 | 84 | 1013.3 |
| 20260507064603 | 55 | 273 | 1.7 | 3.5 | 0.00 | 0.13 | 0.02 | 84 | 1013.2 |
| 20260507064503 | 55 | 276 | 1.7 | 3.5 | 0.00 | 0.13 | 0.02 | 85 | 1013.2 |
| 20260507064403 | 55 | 279 | 1.7 | 4.3 | 0.00 | 0.13 | 0.02 | 85 | 1013.1 |
| 20260507064304 | 55 | 281 | 1.7 | 4.3 | 0.00 | 0.13 | 0.02 | 85 | 1013.1 |
| 20260507064204 | 55 | 283 | 1.7 | 4.3 | 0.00 | 0.13 | 0.02 | 85 | 1013.1 |
| 20260507064103 | 55 | 286 | 1.7 | 4.3 | 0.00 | 0.13 | 0.02 | 85 | 1013.1 |
| 20260507064003 | 55 | 284 | 1.7 | 4.3 | 0.00 | 0.13 | 0.02 | 85 | 1013.1 |
| 20260507063903 | 55 | 283 | 1.7 | 4.3 | 0.00 | 0.13 | 0.02 | 85 | 1013.1 |
| 20260507063803 | 55 | 285 | 1.7 | 4.3 | 0.00 | 0.13 | 0.02 | 86 | 1013.1 |
| 20260507063703 | 55 | 285 | 1.7 | 4.3 | 0.00 | 0.13 | 0.02 | 86 | 1013.1 |
| 20260507063603 | 56 | 285 | 1.7 | 4.3 | 0.00 | 0.13 | 0.02 | 86 | 1013.1 |
| 20260507063503 | 55 | 284 | 1.7 | 4.3 | 0.00 | 0.13 | 0.02 | 86 | 1013.1 |
| 20260507063403 | 55 | 282 | 1.7 | 3.5 | 0.00 | 0.13 | 0.02 | 86 | 1013.1 |
| 20260507063303 | 55 | 282 | 1.7 | 3.5 | 0.00 | 0.13 | 0.02 | 86 | 1013.0 |
| 20260507063203 | 55 | 281 | 1.7 | 3.5 | 0.00 | 0.13 | 0.02 | 86 | 1013.0 |
| 20260507063103 | 55 | 280 | 1.7 | 3.5 | 0.00 | 0.13 | 0.02 | 86 | 1013.0 |
| 20260507063003 | 55 | 281 | 0.9 | 3.5 | 0.00 | 0.13 | 0.02 | 86 | 1013.0 |
| 20260507062903 | 55 | 282 | 0.9 | 3.5 | 0.00 | 0.13 | 0.02 | 86 | 1013.0 |
| 20260507062803 | 55 | 281 | 0.9 | 3.5 | 0.00 | 0.13 | 0.02 | 86 | 1013.0 |
| 20260507062703 | 55 | 281 | 0.9 | 3.5 | 0.00 | 0.13 | 0.02 | 86 | 1013.0 |
| 20260507062603 | 54 | 279 | 0.9 | 3.5 | 0.00 | 0.13 | 0.02 | 86 | 1013.0 |
| 20260507062503 | 54 | 279 | 0.0 | 3.5 | 0.00 | 0.13 | 0.02 | 86 | 1012.9 |
| 20260507062403 | 54 | 0 | 0.0 | 0.0 | 0.00 | 0.13 | 0.02 | 86 | 1012.9 |
| 20260507062306 | 54 | 0 | 0.0 | 0.0 | 0.00 | 0.13 | 0.02 | 86 | 1012.9 |
| 20260507062203 | 54 | 0 | 0.0 | 0.0 | 0.00 | 0.13 | 0.02 | 86 | 1012.9 |
| 20260507062103 | 54 | 0 | 0.0 | 0.0 | 0.00 | 0.13 | 0.02 | 86 | 1012.8 |
| 20260507062003 | 54 | 0 | 0.0 | 0.0 | 0.00 | 0.13 | 0.02 | 86 | 1012.8 |
| 20260507061903 | 54 | 0 | 0.0 | 0.0 | 0.00 | 0.13 | 0.02 | 86 | 1012.8 |
| 20260507061803 | 54 | 0 | 0.0 | 0.0 | 0.00 | 0.13 | 0.02 | 86 | 1012.7 |
| 20260507061703 | 54 | 0 | 0.0 | 0.0 | 0.00 | 0.13 | 0.02 | 86 | 1012.7 |
| 20260507061603 | 54 | 0 | 0.0 | 0.0 | 0.00 | 0.13 | 0.02 | 86 | 1012.7 |
| 20260507061503 | 54 | 264 | 0.0 | 1.7 | 0.00 | 0.13 | 0.02 | 86 | 1012.8 |
| 20260507061403 | 54 | 264 | 0.0 | 2.6 | 0.00 | 0.13 | 0.02 | 86 | 1012.8 |
| 20260507061303 | 54 | 263 | 0.9 | 2.6 | 0.00 | 0.13 | 0.02 | 86 | 1012.7 |
| 20260507061203 | 54 | 263 | 0.9 | 3.5 | 0.00 | 0.13 | 0.02 | 86 | 1012.7 |
| 20260507061103 | 54 | 261 | 0.9 | 3.5 | 0.00 | 0.13 | 0.02 | 86 | 1012.7 |
| 20260507061003 | 54 | 262 | 0.9 | 3.5 | 0.00 | 0.13 | 0.02 | 86 | 1012.8 |
| 20260507060903 | 54 | 263 | 0.9 | 3.5 | 0.00 | 0.13 | 0.02 | 86 | 1012.8 |
| 20260507060803 | 54 | 263 | 0.9 | 3.5 | 0.00 | 0.13 | 0.02 | 86 | 1012.7 |
| 20260507060703 | 54 | 263 | 0.9 | 3.5 | 0.00 | 0.13 | 0.02 | 86 | 1012.8 |
| 20260507060603 | 54 | 264 | 1.7 | 3.5 | 0.00 | 0.13 | 0.02 | 86 | 1012.8 |
| 20260507060503 | 54 | 265 | 1.7 | 3.5 | 0.00 | 0.13 | 0.02 | 86 | 1012.8 |
| 20260507060403 | 54 | 266 | 1.7 | 3.5 | 0.00 | 0.13 | 0.02 | 86 | 1012.9 |
| 20260507060303 | 54 | 267 | 1.7 | 3.5 | 0.00 | 0.13 | 0.02 | 86 | 1012.9 |
| 20260507060203 | 54 | 268 | 1.7 | 3.5 | 0.00 | 0.13 | 0.02 | 86 | 1012.7 |
| 20260507060004 | 54 | 269 | 1.7 | 3.5 | 0.00 | 0.13 | 0.02 | 86 | 1012.7 |
| 20260507055903 | 54 | 269 | 1.7 | 3.5 | 0.00 | 0.13 | 0.02 | 86 | 1012.7 |
| 20260507055803 | 54 | 270 | 1.7 | 3.5 | 0.00 | 0.13 | 0.02 | 86 | 1012.7 |
| 20260507055703 | 54 | 271 | 1.7 | 3.5 | 0.00 | 0.13 | 0.02 | 86 | 1012.7 |
| 20260507055603 | 54 | 273 | 1.7 | 3.5 | 0.00 | 0.13 | 0.02 | 86 | 1012.7 |
| 20260507055504 | 54 | 273 | 1.7 | 2.6 | 0.00 | 0.13 | 0.02 | 86 | 1012.7 |
| 20260507055403 | 54 | 271 | 1.7 | 2.6 | 0.00 | 0.13 | 0.02 | 86 | 1012.7 |
| 20260507055306 | 54 | 271 | 1.7 | 2.6 | 0.00 | 0.13 | 0.02 | 86 | 1012.7 |
| 20260507055203 | 54 | 271 | 0.9 | 2.6 | 0.00 | 0.13 | 0.02 | 86 | 1012.7 |
| 20260507055103 | 54 | 266 | 0.9 | 2.6 | 0.00 | 0.13 | 0.02 | 86 | 1012.7 |
| 20260507055003 | 54 | 265 | 0.9 | 2.6 | 0.00 | 0.13 | 0.02 | 86 | 1012.7 |
| 20260507054903 | 54 | 259 | 0.9 | 2.6 | 0.00 | 0.13 | 0.02 | 86 | 1012.7 |
| 20260507054804 | 54 | 253 | 0.9 | 2.6 | 0.00 | 0.13 | 0.02 | 86 | 1012.7 |
| 20260507054703 | 54 | 239 | 0.9 | 2.6 | 0.00 | 0.13 | 0.02 | 86 | 1012.7 |
| 20260507054603 | 54 | 220 | 0.9 | 2.6 | 0.00 | 0.13 | 0.02 | 86 | 1012.7 |
| 20260507054503 | 54 | 203 | 0.9 | 2.6 | 0.00 | 0.13 | 0.02 | 86 | 1012.7 |
| 20260507054403 | 54 | 192 | 0.0 | 1.7 | 0.00 | 0.13 | 0.02 | 86 | 1012.6 |
| 20260507054303 | 54 | 192 | 0.9 | 1.7 | 0.00 | 0.13 | 0.02 | 86 | 1012.6 |
| 20260507054203 | 54 | 192 | 0.9 | 1.7 | 0.00 | 0.13 | 0.02 | 86 | 1012.6 |
| 20260507054103 | 54 | 192 | 0.9 | 1.7 | 0.00 | 0.13 | 0.02 | 86 | 1012.6 |
| 20260507054003 | 54 | 192 | 0.9 | 1.7 | 0.00 | 0.13 | 0.02 | 86 | 1012.6 |
| 20260507053903 | 54 | 192 | 0.9 | 2.6 | 0.00 | 0.13 | 0.02 | 86 | 1012.6 |
| 20260507053803 | 54 | 192 | 0.9 | 2.6 | 0.00 | 0.13 | 0.02 | 86 | 1012.6 |
| 20260507053703 | 54 | 192 | 0.9 | 2.6 | 0.00 | 0.13 | 0.02 | 86 | 1012.5 |
| 20260507053603 | 54 | 192 | 0.9 | 2.6 | 0.00 | 0.13 | 0.02 | 86 | 1012.5 |
| 20260507053503 | 54 | 192 | 0.9 | 2.6 | 0.00 | 0.13 | 0.02 | 85 | 1012.5 |
| 20260507053403 | 54 | 192 | 0.9 | 2.6 | 0.00 | 0.13 | 0.02 | 86 | 1012.5 |
| 20260507053303 | 54 | 192 | 0.9 | 2.6 | 0.00 | 0.13 | 0.02 | 86 | 1012.5 |
| 20260507053203 | 54 | 189 | 0.9 | 2.6 | 0.00 | 0.13 | 0.02 | 85 | 1012.4 |
| 20260507053103 | 54 | 185 | 0.9 | 2.6 | 0.00 | 0.13 | 0.02 | 85 | 1012.4 |
| 20260507053003 | 54 | 182 | 0.9 | 2.6 | 0.00 | 0.13 | 0.02 | 85 | 1012.4 |
| 20260507052903 | 54 | 177 | 0.9 | 2.6 | 0.00 | 0.13 | 0.02 | 85 | 1012.4 |
| 20260507052803 | 54 | 171 | 0.9 | 2.6 | 0.00 | 0.13 | 0.02 | 85 | 1012.4 |
| 20260507052703 | 54 | 164 | 0.9 | 1.7 | 0.00 | 0.13 | 0.02 | 85 | 1012.4 |
| 20260507052603 | 54 | 158 | 0.9 | 1.7 | 0.00 | 0.13 | 0.02 | 85 | 1012.3 |
| 20260507052503 | 54 | 152 | 0.9 | 1.7 | 0.00 | 0.13 | 0.02 | 85 | 1012.3 |
| 20260507052403 | 54 | 147 | 0.9 | 1.7 | 0.00 | 0.13 | 0.02 | 85 | 1012.3 |
| 20260507052306 | 54 | 140 | 0.9 | 1.7 | 0.00 | 0.13 | 0.02 | 85 | 1012.3 |
| 20260507052204 | 54 | 133 | 0.9 | 1.7 | 0.00 | 0.13 | 0.02 | 85 | 1012.3 |
| 20260507052103 | 54 | 129 | 0.9 | 1.7 | 0.00 | 0.13 | 0.02 | 85 | 1012.3 |
| 20260507052003 | 54 | 125 | 0.9 | 1.7 | 0.00 | 0.13 | 0.02 | 85 | 1012.3 |
| 20260507051903 | 54 | 122 | 0.9 | 1.7 | 0.00 | 0.13 | 0.02 | 85 | 1012.3 |
| 20260507051803 | 54 | 119 | 0.9 | 1.7 | 0.00 | 0.13 | 0.02 | 85 | 1012.2 |
| 20260507051703 | 54 | 116 | 0.9 | 1.7 | 0.00 | 0.13 | 0.02 | 85 | 1012.2 |
| 20260507051603 | 54 | 111 | 0.9 | 1.7 | 0.00 | 0.13 | 0.02 | 85 | 1012.3 |
| 20260507051503 | 54 | 105 | 0.9 | 1.7 | 0.00 | 0.13 | 0.02 | 85 | 1012.3 |
| 20260507051403 | 54 | 95 | 0.9 | 1.7 | 0.00 | 0.13 | 0.02 | 85 | 1012.3 |
| 20260507051303 | 54 | 82 | 0.9 | 1.7 | 0.00 | 0.13 | 0.02 | 85 | 1012.2 |
| 20260507051203 | 54 | 80 | 0.0 | 1.7 | 0.00 | 0.13 | 0.02 | 85 | 1012.2 |
| 20260507051103 | 54 | 80 | 0.0 | 1.7 | 0.00 | 0.13 | 0.02 | 85 | 1012.1 |
| 20260507051003 | 54 | 80 | 0.0 | 1.7 | 0.00 | 0.13 | 0.02 | 85 | 1012.1 |
| 20260507050904 | 54 | 80 | 0.0 | 1.7 | 0.00 | 0.13 | 0.02 | 85 | 1012.1 |
| 20260507050803 | 54 | 80 | 0.0 | 1.7 | 0.00 | 0.13 | 0.02 | 85 | 1012.1 |
| 20260507050703 | 54 | 80 | 0.0 | 1.7 | 0.00 | 0.13 | 0.02 | 85 | 1012.1 |
| 20260507050604 | 54 | 80 | 0.0 | 1.7 | 0.00 | 0.13 | 0.02 | 85 | 1012.0 |
| 20260507050503 | 54 | 80 | 0.0 | 1.7 | 0.00 | 0.13 | 0.02 | 85 | 1012.0 |
| 20260507050403 | 54 | 80 | 0.0 | 1.7 | 0.00 | 0.13 | 0.02 | 85 | 1012.0 |
| 20260507050303 | 54 | 80 | 0.0 | 0.9 | 0.00 | 0.13 | 0.02 | 85 | 1012.0 |
| 20260507050203 | 54 | 80 | 0.0 | 1.7 | 0.00 | 0.13 | 0.02 | 85 | 1012.0 |
| 20260507050103 | 54 | 80 | 0.9 | 2.6 | 0.00 | 0.13 | 0.02 | 85 | 1012.0 |
| 20260507050004 | 54 | 79 | 0.9 | 2.6 | 0.00 | 0.13 | 0.02 | 85 | 1012.0 |
| 20260507045903 | 54 | 78 | 0.9 | 2.6 | 0.00 | 0.13 | 0.02 | 85 | 1012.0 |
| 20260507045803 | 54 | 73 | 0.9 | 2.6 | 0.00 | 0.13 | 0.02 | 85 | 1011.8 |
| 20260507045703 | 54 | 64 | 0.9 | 3.5 | 0.00 | 0.13 | 0.02 | 85 | 1011.8 |
| 20260507045603 | 54 | 55 | 0.9 | 3.5 | 0.00 | 0.13 | 0.02 | 85 | 1011.8 |
| 20260507045503 | 54 | 48 | 1.7 | 3.5 | 0.00 | 0.13 | 0.02 | 85 | 1011.8 |
| 20260507045403 | 54 | 47 | 1.7 | 3.5 | 0.00 | 0.13 | 0.02 | 85 | 1011.8 |
| 20260507045306 | 54 | 46 | 0.9 | 3.5 | 0.00 | 0.13 | 0.02 | 85 | 1011.7 |
| 20260507045203 | 54 | 43 | 0.9 | 3.5 | 0.00 | 0.13 | 0.02 | 85 | 1011.7 |
| 20260507045103 | 53 | 35 | 0.9 | 3.5 | 0.00 | 0.13 | 0.02 | 85 | 1011.7 |
| 20260507045003 | 54 | 24 | 0.9 | 3.5 | 0.00 | 0.13 | 0.02 | 85 | 1011.7 |
| 20260507044903 | 54 | 14 | 0.9 | 3.5 | 0.00 | 0.13 | 0.02 | 85 | 1011.7 |
| 20260507044803 | 54 | 8 | 0.9 | 3.5 | 0.00 | 0.13 | 0.02 | 85 | 1011.7 |
| 20260507044703 | 54 | 8 | 0.9 | 3.5 | 0.00 | 0.13 | 0.02 | 85 | 1011.7 |
| 20260507044603 | 54 | 15 | 0.9 | 3.5 | 0.00 | 0.13 | 0.02 | 85 | 1011.7 |
| 20260507044503 | 54 | 21 | 0.9 | 3.5 | 0.00 | 0.13 | 0.02 | 85 | 1011.6 |
| 20260507044403 | 54 | 29 | 0.9 | 4.3 | 0.00 | 0.13 | 0.02 | 85 | 1011.6 |
| 20260507044304 | 54 | 30 | 1.7 | 4.3 | 0.00 | 0.13 | 0.02 | 85 | 1011.7 |
| 20260507044203 | 54 | 32 | 1.7 | 4.3 | 0.00 | 0.13 | 0.02 | 85 | 1011.8 |
| 20260507044103 | 54 | 34 | 1.7 | 4.3 | 0.00 | 0.13 | 0.02 | 85 | 1011.8 |
| 20260507044003 | 54 | 41 | 1.7 | 4.3 | 0.00 | 0.13 | 0.02 | 85 | 1011.7 |
| 20260507043903 | 54 | 52 | 1.7 | 4.3 | 0.00 | 0.13 | 0.02 | 85 | 1011.6 |
| 20260507043803 | 54 | 54 | 1.7 | 4.3 | 0.00 | 0.13 | 0.02 | 85 | 1011.6 |
| 20260507043703 | 54 | 50 | 1.7 | 4.3 | 0.00 | 0.13 | 0.02 | 85 | 1011.6 |
| 20260507043603 | 54 | 44 | 1.7 | 4.3 | 0.00 | 0.13 | 0.02 | 85 | 1011.6 |
| 20260507043503 | 54 | 36 | 1.7 | 4.3 | 0.00 | 0.13 | 0.02 | 85 | 1011.6 |
| 20260507043403 | 54 | 27 | 1.7 | 4.3 | 0.00 | 0.13 | 0.02 | 85 | 1011.5 |
| 20260507043303 | 54 | 20 | 1.7 | 4.3 | 0.00 | 0.13 | 0.02 | 85 | 1011.5 |
| 20260507043204 | 53 | 18 | 1.7 | 4.3 | 0.00 | 0.13 | 0.02 | 85 | 1011.6 |
| 20260507043103 | 53 | 12 | 1.7 | 4.3 | 0.00 | 0.13 | 0.02 | 85 | 1011.6 |
| 20260507043003 | 53 | 1 | 1.7 | 4.3 | 0.00 | 0.13 | 0.02 | 85 | 1011.6 |
| 20260507042903 | 53 | 354 | 2.6 | 4.3 | 0.00 | 0.13 | 0.02 | 85 | 1011.5 |
| 20260507042803 | 53 | 350 | 2.6 | 5.2 | 0.00 | 0.13 | 0.02 | 85 | 1011.5 |
| 20260507042704 | 53 | 346 | 2.6 | 5.2 | 0.00 | 0.13 | 0.02 | 85 | 1011.6 |
| 20260507042603 | 53 | 344 | 2.6 | 5.2 | 0.00 | 0.13 | 0.02 | 85 | 1011.5 |
| 20260507042503 | 53 | 342 | 2.6 | 5.2 | 0.00 | 0.13 | 0.02 | 85 | 1011.5 |
| 20260507042403 | 54 | 343 | 2.6 | 5.2 | 0.00 | 0.13 | 0.02 | 85 | 1011.5 |
| 20260507042306 | 53 | 348 | 2.6 | 5.2 | 0.00 | 0.13 | 0.02 | 85 | 1011.5 |
| 20260507042203 | 54 | 350 | 2.6 | 5.2 | 0.00 | 0.13 | 0.02 | 85 | 1011.5 |
| 20260507042103 | 54 | 354 | 2.6 | 5.2 | 0.00 | 0.13 | 0.02 | 85 | 1011.5 |
| 20260507042003 | 54 | 360 | 2.6 | 5.2 | 0.00 | 0.13 | 0.02 | 85 | 1011.5 |
| 20260507041903 | 54 | 2 | 2.6 | 7.0 | 0.00 | 0.13 | 0.02 | 85 | 1011.5 |
| 20260507041803 | 54 | 4 | 3.5 | 7.0 | 0.00 | 0.13 | 0.02 | 85 | 1011.5 |
| 20260507041703 | 54 | 4 | 3.5 | 7.0 | 0.01 | 0.13 | 0.02 | 85 | 1011.3 |
| 20260507041603 | 54 | 4 | 3.5 | 7.0 | 0.01 | 0.13 | 0.02 | 85 | 1011.3 |
| 20260507041503 | 54 | 4 | 3.5 | 7.0 | 0.01 | 0.13 | 0.02 | 85 | 1011.3 |
| 20260507041403 | 53 | 2 | 3.5 | 7.0 | 0.01 | 0.13 | 0.02 | 85 | 1011.3 |
| 20260507041303 | 54 | 360 | 3.5 | 7.8 | 0.01 | 0.13 | 0.02 | 85 | 1011.3 |
| 20260507041203 | 54 | 360 | 3.5 | 7.8 | 0.01 | 0.13 | 0.02 | 85 | 1011.3 |
| 20260507041103 | 54 | 360 | 4.3 | 8.7 | 0.01 | 0.13 | 0.02 | 85 | 1011.3 |
| 20260507041003 | 54 | 359 | 4.3 | 8.7 | 0.01 | 0.13 | 0.02 | 85 | 1011.3 |
| 20260507040903 | 54 | 360 | 4.3 | 9.6 | 0.01 | 0.13 | 0.02 | 85 | 1011.2 |
| 20260507040803 | 54 | 360 | 4.3 | 9.6 | 0.01 | 0.13 | 0.02 | 85 | 1011.3 |
| 20260507040703 | 54 | 1 | 4.3 | 9.6 | 0.01 | 0.13 | 0.02 | 85 | 1011.3 |
| 20260507040603 | 54 | 2 | 4.3 | 9.6 | 0.01 | 0.13 | 0.02 | 85 | 1011.3 |
| 20260507040503 | 54 | 2 | 4.3 | 9.6 | 0.01 | 0.13 | 0.02 | 85 | 1011.3 |
| 20260507040403 | 53 | 2 | 4.3 | 9.6 | 0.01 | 0.13 | 0.02 | 85 | 1011.3 |
| 20260507040303 | 53 | 2 | 5.2 | 9.6 | 0.01 | 0.13 | 0.02 | 85 | 1011.4 |
| 20260507040203 | 53 | 2 | 5.2 | 9.6 | 0.01 | 0.13 | 0.02 | 85 | 1011.4 |
| 20260507040103 | 53 | 1 | 5.2 | 9.6 | 0.01 | 0.13 | 0.02 | 85 | 1011.3 |
| 20260507040004 | 53 | 1 | 5.2 | 9.6 | 0.01 | 0.13 | 0.02 | 85 | 1011.3 |
| 20260507035903 | 53 | 360 | 4.3 | 9.6 | 0.01 | 0.14 | 0.02 | 85 | 1011.4 |
| 20260507035803 | 54 | 1 | 4.3 | 9.6 | 0.01 | 0.14 | 0.02 | 85 | 1011.3 |
| 20260507035703 | 53 | 1 | 4.3 | 9.6 | 0.01 | 0.14 | 0.02 | 85 | 1011.3 |
| 20260507035603 | 53 | 360 | 4.3 | 9.6 | 0.01 | 0.14 | 0.02 | 85 | 1011.4 |
| 20260507035503 | 53 | 359 | 5.2 | 9.6 | 0.01 | 0.14 | 0.02 | 85 | 1011.4 |
| 20260507035403 | 53 | 358 | 5.2 | 12.2 | 0.01 | 0.14 | 0.02 | 84 | 1011.4 |
| 20260507035306 | 54 | 358 | 5.2 | 12.2 | 0.01 | 0.14 | 0.02 | 85 | 1011.4 |
| 20260507035203 | 54 | 357 | 6.1 | 12.2 | 0.01 | 0.15 | 0.02 | 85 | 1011.4 |
| 20260507035103 | 54 | 356 | 6.1 | 12.2 | 0.01 | 0.15 | 0.02 | 85 | 1011.3 |
| 20260507035003 | 53 | 356 | 6.1 | 12.2 | 0.01 | 0.15 | 0.02 | 85 | 1011.3 |
| 20260507034903 | 53 | 356 | 6.1 | 12.2 | 0.01 | 0.15 | 0.02 | 85 | 1011.3 |
| 20260507034803 | 53 | 355 | 6.1 | 12.2 | 0.01 | 0.15 | 0.02 | 84 | 1011.4 |
| 20260507034703 | 53 | 354 | 6.1 | 12.2 | 0.01 | 0.15 | 0.02 | 84 | 1011.4 |
| 20260507034603 | 53 | 353 | 6.1 | 12.2 | 0.01 | 0.15 | 0.02 | 84 | 1011.4 |
| 20260507034503 | 54 | 354 | 6.1 | 12.2 | 0.01 | 0.15 | 0.02 | 84 | 1011.4 |
| 20260507034404 | 54 | 354 | 5.2 | 12.2 | 0.01 | 0.15 | 0.02 | 84 | 1011.4 |
| 20260507034303 | 54 | 353 | 4.3 | 11.3 | 0.01 | 0.15 | 0.02 | 84 | 1011.4 |
| 20260507034203 | 54 | 351 | 4.3 | 8.7 | 0.01 | 0.15 | 0.02 | 84 | 1011.4 |
| 20260507034103 | 54 | 348 | 3.5 | 7.8 | 0.01 | 0.15 | 0.02 | 84 | 1011.3 |
| 20260507034003 | 54 | 344 | 4.3 | 7.8 | 0.01 | 0.15 | 0.02 | 84 | 1011.3 |
| 20260507033903 | 54 | 339 | 3.5 | 7.8 | 0.01 | 0.15 | 0.02 | 84 | 1011.3 |
| 20260507033803 | 54 | 336 | 3.5 | 7.8 | 0.01 | 0.15 | 0.02 | 84 | 1011.3 |
| 20260507033703 | 54 | 334 | 3.5 | 7.8 | 0.01 | 0.15 | 0.02 | 84 | 1011.3 |
| 20260507033603 | 54 | 334 | 3.5 | 7.8 | 0.01 | 0.15 | 0.02 | 84 | 1011.3 |
| 20260507033503 | 54 | 333 | 3.5 | 7.8 | 0.01 | 0.15 | 0.02 | 84 | 1011.4 |
| 20260507033403 | 54 | 333 | 3.5 | 7.8 | 0.01 | 0.15 | 0.02 | 84 | 1011.4 |
| 20260507033304 | 54 | 335 | 3.5 | 7.8 | 0.01 | 0.15 | 0.02 | 84 | 1011.3 |
| 20260507033203 | 54 | 337 | 3.5 | 7.0 | 0.01 | 0.15 | 0.02 | 84 | 1011.3 |
| 20260507033104 | 54 | 342 | 3.5 | 7.0 | 0.01 | 0.15 | 0.02 | 84 | 1011.3 |
| 20260507033003 | 54 | 347 | 3.5 | 7.8 | 0.01 | 0.15 | 0.02 | 84 | 1011.3 |
| 20260507032903 | 54 | 350 | 3.5 | 8.7 | 0.01 | 0.15 | 0.02 | 84 | 1011.3 |
| 20260507032803 | 54 | 352 | 4.3 | 8.7 | 0.01 | 0.15 | 0.02 | 84 | 1011.2 |
| 20260507032703 | 54 | 352 | 4.3 | 9.6 | 0.01 | 0.15 | 0.02 | 84 | 1011.2 |
| 20260507032603 | 54 | 351 | 4.3 | 9.6 | 0.01 | 0.15 | 0.02 | 84 | 1011.2 |
| 20260507032503 | 54 | 351 | 5.2 | 9.6 | 0.01 | 0.15 | 0.02 | 84 | 1011.2 |
| 20260507032403 | 54 | 350 | 5.2 | 9.6 | 0.01 | 0.15 | 0.02 | 84 | 1011.2 |
| 20260507032305 | 54 | 349 | 5.2 | 9.6 | 0.01 | 0.15 | 0.02 | 84 | 1011.2 |
| 20260507032203 | 54 | 349 | 5.2 | 9.6 | 0.01 | 0.15 | 0.02 | 84 | 1011.2 |
| 20260507032103 | 54 | 347 | 5.2 | 9.6 | 0.01 | 0.15 | 0.02 | 84 | 1011.2 |
| 20260507032003 | 54 | 347 | 5.2 | 9.6 | 0.01 | 0.15 | 0.02 | 84 | 1011.2 |
| 20260507031903 | 54 | 347 | 5.2 | 9.6 | 0.01 | 0.15 | 0.02 | 83 | 1011.2 |
| 20260507031803 | 54 | 347 | 5.2 | 9.6 | 0.01 | 0.15 | 0.02 | 83 | 1011.2 |
| 20260507031703 | 54 | 347 | 5.2 | 9.6 | 0.00 | 0.14 | 0.02 | 83 | 1011.2 |
| 20260507031603 | 54 | 348 | 5.2 | 11.3 | 0.00 | 0.14 | 0.02 | 83 | 1011.2 |
| 20260507031503 | 54 | 348 | 5.2 | 11.3 | 0.00 | 0.14 | 0.02 | 83 | 1011.2 |
| 20260507031403 | 54 | 349 | 5.2 | 11.3 | 0.00 | 0.14 | 0.02 | 83 | 1011.3 |
| 20260507031303 | 54 | 349 | 5.2 | 11.3 | 0.00 | 0.14 | 0.02 | 83 | 1011.3 |
| 20260507031203 | 54 | 349 | 5.2 | 11.3 | 0.00 | 0.14 | 0.02 | 83 | 1011.2 |
| 20260507031103 | 54 | 349 | 5.2 | 11.3 | 0.00 | 0.14 | 0.02 | 83 | 1011.2 |
| 20260507031003 | 54 | 347 | 5.2 | 11.3 | 0.00 | 0.14 | 0.02 | 83 | 1011.2 |
| 20260507030903 | 54 | 345 | 4.3 | 11.3 | 0.00 | 0.14 | 0.02 | 83 | 1011.2 |
| 20260507030803 | 54 | 344 | 4.3 | 11.3 | 0.00 | 0.14 | 0.02 | 83 | 1011.2 |
| 20260507030703 | 54 | 341 | 4.3 | 11.3 | 0.00 | 0.14 | 0.02 | 83 | 1011.2 |
| 20260507030603 | 54 | 339 | 3.5 | 9.6 | 0.00 | 0.14 | 0.02 | 83 | 1011.2 |
| 20260507030503 | 54 | 338 | 3.5 | 8.7 | 0.00 | 0.14 | 0.02 | 83 | 1011.3 |
| 20260507030403 | 54 | 339 | 3.5 | 7.8 | 0.00 | 0.14 | 0.02 | 83 | 1011.3 |
| 20260507030303 | 54 | 340 | 3.5 | 7.8 | 0.00 | 0.14 | 0.02 | 83 | 1011.3 |
| 20260507030203 | 54 | 340 | 3.5 | 7.8 | 0.00 | 0.14 | 0.02 | 83 | 1011.3 |
| 20260507030004 | 54 | 342 | 4.3 | 7.8 | 0.00 | 0.14 | 0.02 | 83 | 1011.3 |
| 20260507025903 | 54 | 343 | 4.3 | 7.8 | 0.00 | 0.14 | 0.02 | 82 | 1011.2 |
| 20260507025803 | 54 | 344 | 4.3 | 7.8 | 0.00 | 0.14 | 0.02 | 82 | 1011.2 |
| 20260507025704 | 54 | 345 | 4.3 | 7.8 | 0.00 | 0.14 | 0.02 | 83 | 1011.3 |
| 20260507025603 | 54 | 346 | 4.3 | 7.8 | 0.00 | 0.14 | 0.02 | 82 | 1011.2 |
| 20260507025504 | 54 | 347 | 4.3 | 8.7 | 0.00 | 0.14 | 0.02 | 83 | 1011.2 |
| 20260507025403 | 54 | 347 | 4.3 | 8.7 | 0.00 | 0.14 | 0.02 | 83 | 1011.3 |
| 20260507025306 | 54 | 347 | 4.3 | 8.7 | 0.00 | 0.14 | 0.02 | 83 | 1011.3 |
| 20260507025203 | 54 | 347 | 4.3 | 8.7 | 0.00 | 0.14 | 0.02 | 83 | 1011.2 |
| 20260507025103 | 54 | 348 | 4.3 | 9.6 | 0.00 | 0.14 | 0.02 | 83 | 1011.2 |
| 20260507025003 | 54 | 348 | 4.3 | 9.6 | 0.00 | 0.14 | 0.02 | 83 | 1011.2 |
| 20260507024903 | 54 | 348 | 4.3 | 9.6 | 0.00 | 0.14 | 0.02 | 83 | 1011.2 |
| 20260507024803 | 54 | 348 | 5.2 | 9.6 | 0.00 | 0.14 | 0.02 | 83 | 1011.2 |
| 20260507024703 | 54 | 349 | 5.2 | 10.4 | 0.00 | 0.14 | 0.02 | 83 | 1011.2 |
| 20260507024603 | 54 | 349 | 5.2 | 10.4 | 0.00 | 0.14 | 0.02 | 83 | 1011.2 |
| 20260507024503 | 54 | 349 | 5.2 | 10.4 | 0.00 | 0.14 | 0.02 | 83 | 1011.2 |
| 20260507024403 | 54 | 348 | 6.1 | 11.3 | 0.00 | 0.14 | 0.02 | 83 | 1011.2 |
| 20260507024303 | 54 | 348 | 6.1 | 11.3 | 0.00 | 0.14 | 0.02 | 83 | 1011.1 |
| 20260507024203 | 54 | 348 | 6.1 | 11.3 | 0.00 | 0.14 | 0.02 | 83 | 1011.1 |
| 20260507024103 | 54 | 348 | 6.1 | 11.3 | 0.00 | 0.14 | 0.02 | 83 | 1011.2 |
| 20260507024003 | 54 | 348 | 5.2 | 11.3 | 0.00 | 0.14 | 0.02 | 83 | 1011.2 |
| 20260507023903 | 54 | 349 | 6.1 | 11.3 | 0.00 | 0.14 | 0.02 | 83 | 1011.2 |
| 20260507023803 | 54 | 349 | 6.1 | 11.3 | 0.00 | 0.14 | 0.02 | 83 | 1011.2 |
| 20260507023703 | 54 | 349 | 5.2 | 11.3 | 0.00 | 0.14 | 0.02 | 83 | 1011.2 |
| 20260507023603 | 54 | 348 | 5.2 | 11.3 | 0.00 | 0.14 | 0.02 | 83 | 1011.2 |
| 20260507023503 | 54 | 349 | 5.2 | 11.3 | 0.00 | 0.14 | 0.02 | 83 | 1011.2 |
| 20260507023403 | 54 | 349 | 5.2 | 9.6 | 0.00 | 0.14 | 0.02 | 83 | 1011.1 |
| 20260507023303 | 54 | 349 | 5.2 | 8.7 | 0.00 | 0.14 | 0.02 | 83 | 1011.2 |
| 20260507023203 | 54 | 350 | 5.2 | 8.7 | 0.00 | 0.14 | 0.02 | 83 | 1011.2 |
| 20260507023103 | 54 | 351 | 5.2 | 8.7 | 0.00 | 0.14 | 0.02 | 83 | 1011.2 |
| 20260507023003 | 54 | 350 | 5.2 | 8.7 | 0.00 | 0.14 | 0.02 | 83 | 1011.2 |
| 20260507022903 | 54 | 350 | 4.3 | 8.7 | 0.00 | 0.14 | 0.02 | 83 | 1011.2 |
| 20260507022803 | 54 | 351 | 4.3 | 8.7 | 0.00 | 0.14 | 0.02 | 83 | 1011.2 |
| 20260507022703 | 54 | 351 | 4.3 | 8.7 | 0.00 | 0.14 | 0.02 | 83 | 1011.2 |
| 20260507022603 | 54 | 353 | 4.3 | 8.7 | 0.00 | 0.14 | 0.02 | 83 | 1011.2 |
| 20260507022503 | 54 | 353 | 4.3 | 8.7 | 0.00 | 0.14 | 0.02 | 83 | 1011.1 |
| 20260507022403 | 54 | 353 | 4.3 | 8.7 | 0.00 | 0.14 | 0.02 | 83 | 1011.1 |
| 20260507022306 | 55 | 353 | 4.3 | 8.7 | 0.00 | 0.14 | 0.02 | 83 | 1011.2 |
| 20260507022203 | 55 | 353 | 4.3 | 8.7 | 0.00 | 0.14 | 0.02 | 84 | 1011.2 |
| 20260507022103 | 55 | 353 | 4.3 | 8.7 | 0.00 | 0.14 | 0.02 | 83 | 1011.1 |
| 20260507022003 | 55 | 353 | 4.3 | 8.7 | 0.00 | 0.14 | 0.02 | 83 | 1011.1 |
| 20260507021903 | 55 | 352 | 4.3 | 8.7 | 0.00 | 0.14 | 0.02 | 83 | 1011.1 |
| 20260507021803 | 55 | 352 | 4.3 | 8.7 | 0.00 | 0.14 | 0.02 | 83 | 1011.1 |
| 20260507021703 | 55 | 352 | 3.5 | 8.7 | 0.00 | 0.14 | 0.02 | 83 | 1011.1 |
| 20260507021603 | 55 | 349 | 3.5 | 8.7 | 0.00 | 0.14 | 0.02 | 83 | 1011.1 |
| 20260507021503 | 55 | 348 | 3.5 | 8.7 | 0.00 | 0.14 | 0.02 | 83 | 1011.1 |
| 20260507021404 | 55 | 347 | 3.5 | 8.7 | 0.00 | 0.14 | 0.02 | 83 | 1011.1 |
| 20260507021303 | 55 | 347 | 3.5 | 7.8 | 0.00 | 0.14 | 0.02 | 83 | 1011.1 |
| 20260507021203 | 55 | 346 | 2.6 | 7.8 | 0.00 | 0.14 | 0.02 | 83 | 1011.1 |
| 20260507021103 | 55 | 346 | 2.6 | 7.8 | 0.00 | 0.14 | 0.02 | 83 | 1011.1 |
| 20260507021003 | 55 | 346 | 2.6 | 7.8 | 0.00 | 0.14 | 0.02 | 83 | 1011.1 |
| 20260507020903 | 55 | 349 | 3.5 | 8.7 | 0.00 | 0.14 | 0.02 | 83 | 1011.1 |
| 20260507020803 | 55 | 347 | 3.5 | 8.7 | 0.00 | 0.14 | 0.02 | 83 | 1011.2 |
| 20260507020703 | 55 | 344 | 3.5 | 8.7 | 0.00 | 0.14 | 0.02 | 83 | 1011.2 |
| 20260507020603 | 55 | 341 | 3.5 | 8.7 | 0.00 | 0.14 | 0.02 | 83 | 1011.2 |
| 20260507020503 | 55 | 340 | 3.5 | 8.7 | 0.00 | 0.14 | 0.02 | 83 | 1011.2 |
| 20260507020403 | 55 | 339 | 3.5 | 8.7 | 0.00 | 0.14 | 0.02 | 83 | 1011.2 |
| 20260507020303 | 55 | 340 | 3.5 | 8.7 | 0.00 | 0.14 | 0.02 | 83 | 1011.2 |
| 20260507020203 | 55 | 341 | 3.5 | 8.7 | 0.00 | 0.14 | 0.02 | 83 | 1011.2 |
| 20260507020103 | 55 | 343 | 3.5 | 8.7 | 0.00 | 0.14 | 0.02 | 83 | 1011.2 |
| 20260507020004 | 55 | 343 | 3.5 | 8.7 | 0.00 | 0.14 | 0.02 | 83 | 1011.2 |
| 20260507015903 | 55 | 344 | 4.3 | 8.7 | 0.00 | 0.14 | 0.02 | 83 | 1011.1 |
| 20260507015803 | 55 | 346 | 4.3 | 8.7 | 0.00 | 0.14 | 0.02 | 83 | 1011.1 |
| 20260507015704 | 55 | 351 | 4.3 | 8.7 | 0.00 | 0.14 | 0.02 | 84 | 1011.0 |
| 20260507015603 | 55 | 355 | 4.3 | 8.7 | 0.00 | 0.14 | 0.02 | 83 | 1011.0 |
| 20260507015503 | 55 | 357 | 4.3 | 8.7 | 0.00 | 0.14 | 0.02 | 84 | 1011.1 |
| 20260507015403 | 55 | 358 | 5.2 | 8.7 | 0.00 | 0.14 | 0.02 | 84 | 1011.0 |
| 20260507015306 | 55 | 358 | 5.2 | 8.7 | 0.00 | 0.14 | 0.02 | 84 | 1011.0 |
| 20260507015203 | 55 | 358 | 5.2 | 8.7 | 0.00 | 0.14 | 0.02 | 84 | 1011.0 |
| 20260507015103 | 55 | 358 | 4.3 | 8.7 | 0.00 | 0.14 | 0.02 | 84 | 1011.0 |
| 20260507015003 | 55 | 358 | 4.3 | 8.7 | 0.00 | 0.14 | 0.02 | 84 | 1011.0 |
| 20260507014903 | 55 | 359 | 4.3 | 8.7 | 0.00 | 0.14 | 0.02 | 84 | 1011.0 |
| 20260507014803 | 55 | 359 | 4.3 | 8.7 | 0.00 | 0.14 | 0.02 | 84 | 1011.0 |
| 20260507014703 | 55 | 358 | 4.3 | 8.7 | 0.00 | 0.14 | 0.02 | 84 | 1011.0 |
| 20260507014603 | 55 | 358 | 4.3 | 7.8 | 0.00 | 0.14 | 0.02 | 84 | 1011.0 |
| 20260507014503 | 55 | 357 | 3.5 | 7.0 | 0.00 | 0.14 | 0.02 | 84 | 1010.9 |
| 20260507014403 | 55 | 357 | 3.5 | 7.0 | 0.00 | 0.14 | 0.02 | 84 | 1011.0 |
| 20260507014303 | 55 | 356 | 3.5 | 7.0 | 0.00 | 0.14 | 0.02 | 84 | 1011.0 |
| 20260507014203 | 55 | 356 | 3.5 | 7.0 | 0.00 | 0.14 | 0.02 | 84 | 1011.0 |
| 20260507014103 | 55 | 356 | 3.5 | 7.0 | 0.00 | 0.14 | 0.02 | 84 | 1011.0 |
| 20260507014003 | 55 | 355 | 3.5 | 7.0 | 0.00 | 0.14 | 0.02 | 84 | 1011.0 |
| 20260507013903 | 55 | 354 | 3.5 | 7.0 | 0.00 | 0.14 | 0.02 | 85 | 1011.0 |
| 20260507013803 | 55 | 354 | 2.6 | 5.2 | 0.00 | 0.14 | 0.02 | 85 | 1011.0 |
| 20260507013703 | 55 | 354 | 2.6 | 5.2 | 0.00 | 0.14 | 0.02 | 85 | 1010.9 |
| 20260507013603 | 55 | 353 | 2.6 | 5.2 | 0.00 | 0.14 | 0.02 | 84 | 1011.0 |
| 20260507013503 | 55 | 354 | 2.6 | 5.2 | 0.00 | 0.14 | 0.02 | 84 | 1011.0 |
| 20260507013403 | 55 | 355 | 3.5 | 5.2 | 0.00 | 0.14 | 0.02 | 84 | 1010.9 |
| 20260507013303 | 55 | 356 | 2.6 | 5.2 | 0.00 | 0.14 | 0.02 | 84 | 1010.9 |
| 20260507013203 | 55 | 356 | 2.6 | 5.2 | 0.01 | 0.14 | 0.02 | 84 | 1010.9 |
| 20260507013103 | 55 | 356 | 2.6 | 5.2 | 0.01 | 0.14 | 0.02 | 84 | 1011.0 |
| 20260507013003 | 55 | 357 | 2.6 | 5.2 | 0.01 | 0.14 | 0.02 | 84 | 1011.0 |
| 20260507012903 | 55 | 357 | 2.6 | 4.3 | 0.01 | 0.14 | 0.02 | 84 | 1011.0 |
| 20260507012803 | 55 | 356 | 2.6 | 4.3 | 0.01 | 0.14 | 0.02 | 84 | 1011.0 |
| 20260507012703 | 55 | 356 | 2.6 | 4.3 | 0.01 | 0.14 | 0.02 | 84 | 1011.0 |
| 20260507012603 | 55 | 357 | 2.6 | 4.3 | 0.01 | 0.14 | 0.02 | 84 | 1011.0 |
| 20260507012503 | 55 | 358 | 1.7 | 4.3 | 0.01 | 0.14 | 0.02 | 84 | 1011.0 |
| 20260507012403 | 55 | 360 | 1.7 | 4.3 | 0.01 | 0.14 | 0.02 | 84 | 1011.0 |
| 20260507012306 | 55 | 1 | 1.7 | 4.3 | 0.01 | 0.14 | 0.02 | 84 | 1011.1 |
| 20260507012203 | 55 | 3 | 1.7 | 2.6 | 0.02 | 0.14 | 0.02 | 84 | 1011.1 |
| 20260507012103 | 55 | 5 | 1.7 | 2.6 | 0.02 | 0.14 | 0.02 | 84 | 1011.1 |
| 20260507012003 | 55 | 8 | 1.7 | 2.6 | 0.02 | 0.14 | 0.02 | 84 | 1011.1 |
| 20260507011903 | 55 | 11 | 1.7 | 2.6 | 0.02 | 0.14 | 0.02 | 84 | 1011.1 |
| 20260507011803 | 55 | 14 | 1.7 | 3.5 | 0.02 | 0.14 | 0.02 | 84 | 1011.0 |
| 20260507011703 | 55 | 15 | 1.7 | 3.5 | 0.02 | 0.14 | 0.02 | 84 | 1011.0 |
| 20260507011603 | 55 | 17 | 1.7 | 3.5 | 0.02 | 0.14 | 0.02 | 84 | 1011.1 |
| 20260507011503 | 55 | 15 | 1.7 | 3.5 | 0.02 | 0.14 | 0.02 | 84 | 1011.1 |
| 20260507011403 | 55 | 13 | 1.7 | 3.5 | 0.02 | 0.14 | 0.02 | 84 | 1011.2 |
| 20260507011303 | 55 | 11 | 1.7 | 3.5 | 0.02 | 0.14 | 0.02 | 84 | 1011.1 |
| 20260507011203 | 55 | 11 | 1.7 | 3.5 | 0.02 | 0.14 | 0.02 | 84 | 1011.1 |
| 20260507011103 | 55 | 9 | 1.7 | 3.5 | 0.02 | 0.14 | 0.02 | 84 | 1011.2 |
| 20260507011003 | 55 | 8 | 1.7 | 3.5 | 0.02 | 0.14 | 0.02 | 84 | 1011.1 |
| 20260507010903 | 55 | 7 | 1.7 | 3.5 | 0.02 | 0.14 | 0.02 | 84 | 1011.1 |
| 20260507010803 | 55 | 4 | 1.7 | 2.6 | 0.02 | 0.14 | 0.02 | 84 | 1011.2 |
| 20260507010703 | 55 | 2 | 0.9 | 2.6 | 0.02 | 0.14 | 0.02 | 84 | 1011.2 |
| 20260507010603 | 55 | 360 | 0.9 | 2.6 | 0.02 | 0.14 | 0.02 | 84 | 1011.1 |
| 20260507010503 | 55 | 360 | 0.9 | 2.6 | 0.02 | 0.14 | 0.02 | 84 | 1011.1 |
| 20260507010403 | 55 | 360 | 0.9 | 2.6 | 0.02 | 0.14 | 0.02 | 84 | 1011.1 |
| 20260507010303 | 55 | 360 | 0.9 | 2.6 | 0.02 | 0.14 | 0.02 | 84 | 1011.1 |
| 20260507010203 | 55 | 358 | 0.9 | 2.6 | 0.02 | 0.14 | 0.02 | 84 | 1011.1 |
| 20260507010004 | 55 | 348 | 0.9 | 2.6 | 0.02 | 0.14 | 0.02 | 84 | 1011.2 |
| 20260507005903 | 55 | 347 | 0.9 | 2.6 | 0.02 | 0.14 | 0.02 | 84 | 1011.2 |
| 20260507005803 | 55 | 346 | 0.0 | 2.6 | 0.02 | 0.14 | 0.02 | 84 | 1011.2 |
| 20260507005703 | 55 | 338 | 0.0 | 1.7 | 0.02 | 0.14 | 0.02 | 84 | 1011.2 |
| 20260507005603 | 55 | 338 | 0.0 | 1.7 | 0.02 | 0.14 | 0.02 | 84 | 1011.2 |
| 20260507005503 | 55 | 338 | 0.0 | 1.7 | 0.02 | 0.14 | 0.02 | 84 | 1011.2 |
| 20260507005403 | 55 | 338 | 0.0 | 1.7 | 0.02 | 0.14 | 0.02 | 84 | 1011.2 |
| 20260507005305 | 55 | 342 | 0.0 | 1.7 | 0.02 | 0.14 | 0.02 | 84 | 1011.3 |
| 20260507005203 | 55 | 344 | 0.0 | 1.7 | 0.02 | 0.14 | 0.02 | 84 | 1011.2 |
| 20260507005103 | 55 | 354 | 0.0 | 1.7 | 0.02 | 0.14 | 0.02 | 84 | 1011.2 |
| 20260507005003 | 55 | 35 | 0.0 | 0.9 | 0.02 | 0.14 | 0.02 | 84 | 1011.2 |
| 20260507004903 | 55 | 35 | 0.0 | 0.9 | 0.02 | 0.14 | 0.02 | 84 | 1011.2 |
| 20260507004803 | 55 | 37 | 0.0 | 0.9 | 0.02 | 0.14 | 0.02 | 84 | 1011.3 |
| 20260507004703 | 55 | 42 | 0.0 | 0.9 | 0.02 | 0.14 | 0.02 | 84 | 1011.3 |
| 20260507004603 | 55 | 43 | 0.0 | 0.9 | 0.02 | 0.14 | 0.02 | 84 | 1011.3 |
| 20260507004503 | 55 | 43 | 0.0 | 1.7 | 0.02 | 0.14 | 0.02 | 84 | 1011.2 |
| 20260507004403 | 55 | 43 | 0.0 | 1.7 | 0.02 | 0.14 | 0.02 | 84 | 1011.2 |
| 20260507004303 | 55 | 51 | 0.0 | 1.7 | 0.02 | 0.14 | 0.02 | 84 | 1011.2 |
| 20260507004203 | 55 | 56 | 0.0 | 1.7 | 0.02 | 0.14 | 0.02 | 84 | 1011.3 |
| 20260507004103 | 55 | 58 | 0.0 | 1.7 | 0.02 | 0.14 | 0.02 | 84 | 1011.3 |
| 20260507004003 | 55 | 61 | 0.0 | 1.7 | 0.02 | 0.14 | 0.02 | 84 | 1011.3 |
| 20260507003903 | 55 | 57 | 0.9 | 1.7 | 0.02 | 0.14 | 0.02 | 84 | 1011.3 |
| 20260507003803 | 55 | 55 | 0.9 | 1.7 | 0.02 | 0.14 | 0.02 | 84 | 1011.2 |
| 20260507003703 | 55 | 54 | 0.9 | 1.7 | 0.02 | 0.14 | 0.02 | 83 | 1011.3 |
| 20260507003604 | 55 | 54 | 0.9 | 1.7 | 0.02 | 0.14 | 0.02 | 83 | 1011.3 |
| 20260507003503 | 55 | 56 | 0.9 | 1.7 | 0.02 | 0.14 | 0.02 | 84 | 1011.3 |
| 20260507003403 | 55 | 65 | 0.0 | 1.7 | 0.02 | 0.14 | 0.02 | 84 | 1011.2 |
| 20260507003303 | 55 | 52 | 0.0 | 1.7 | 0.02 | 0.14 | 0.02 | 84 | 1011.2 |
| 20260507003203 | 55 | 268 | 0.0 | 1.7 | 0.01 | 0.13 | 0.02 | 83 | 1011.3 |
| 20260507003103 | 55 | 262 | 0.0 | 1.7 | 0.01 | 0.13 | 0.01 | 83 | 1011.3 |
| 20260507003003 | 55 | 258 | 0.0 | 2.6 | 0.01 | 0.13 | 0.01 | 83 | 1011.3 |
| 20260507002903 | 55 | 258 | 0.0 | 2.6 | 0.01 | 0.13 | 0.01 | 83 | 1011.3 |
| 20260507002803 | 55 | 259 | 0.0 | 2.6 | 0.01 | 0.13 | 0.01 | 83 | 1011.3 |
| 20260507002703 | 55 | 269 | 0.0 | 2.6 | 0.01 | 0.13 | 0.01 | 83 | 1011.4 |
| 20260507002603 | 55 | 276 | 0.9 | 2.6 | 0.01 | 0.13 | 0.01 | 83 | 1011.4 |
| 20260507002503 | 55 | 277 | 0.9 | 3.5 | 0.01 | 0.13 | 0.01 | 83 | 1011.4 |
| 20260507002403 | 55 | 277 | 0.9 | 3.5 | 0.01 | 0.13 | 0.01 | 83 | 1011.4 |
| 20260507002306 | 55 | 273 | 0.9 | 3.5 | 0.01 | 0.13 | 0.01 | 83 | 1011.4 |
| 20260507002203 | 55 | 271 | 0.9 | 3.5 | 0.00 | 0.13 | 0.00 | 82 | 1011.4 |
| 20260507002103 | 55 | 270 | 0.9 | 3.5 | 0.00 | 0.13 | 0.00 | 82 | 1011.4 |
| 20260507002003 | 55 | 269 | 0.9 | 3.5 | 0.00 | 0.13 | 0.00 | 82 | 1011.4 |
| 20260507001904 | 55 | 266 | 0.9 | 3.5 | 0.00 | 0.13 | 0.00 | 82 | 1011.4 |
| 20260507001803 | 55 | 263 | 0.9 | 3.5 | 0.00 | 0.13 | 0.00 | 82 | 1011.4 |
| 20260507001703 | 56 | 260 | 1.7 | 3.5 | 0.00 | 0.13 | 0.00 | 82 | 1011.4 |
| 20260507001604 | 56 | 256 | 1.7 | 3.5 | 0.00 | 0.13 | 0.00 | 82 | 1011.5 |
| 20260507001503 | 56 | 254 | 1.7 | 3.5 | 0.00 | 0.13 | 0.00 | 82 | 1011.5 |
| 20260507001403 | 56 | 255 | 1.7 | 3.5 | 0.00 | 0.13 | 0.00 | 82 | 1011.5 |
| 20260507001303 | 56 | 260 | 1.7 | 3.5 | 0.00 | 0.13 | 0.00 | 81 | 1011.5 |
| 20260507001203 | 56 | 266 | 1.7 | 5.2 | 0.00 | 0.13 | 0.00 | 81 | 1011.5 |
| 20260507001103 | 56 | 270 | 1.7 | 6.1 | 0.00 | 0.13 | 0.00 | 81 | 1011.4 |
| 20260507001003 | 56 | 271 | 1.7 | 6.1 | 0.00 | 0.13 | 0.00 | 81 | 1011.4 |
| 20260507000903 | 56 | 273 | 2.6 | 6.1 | 0.00 | 0.13 | 0.00 | 81 | 1011.4 |
| 20260507000803 | 56 | 273 | 2.6 | 6.1 | 0.00 | 0.13 | 0.00 | 81 | 1011.4 |
| 20260507000703 | 56 | 273 | 2.6 | 6.1 | 0.00 | 0.13 | 0.00 | 81 | 1011.4 |
| 20260507000603 | 56 | 274 | 2.6 | 6.1 | 0.00 | 0.13 | 0.00 | 80 | 1011.4 |
| 20260507000503 | 56 | 273 | 2.6 | 6.1 | 0.00 | 0.13 | 0.00 | 80 | 1011.4 |
| 20260507000405 | 56 | 272 | 2.6 | 6.1 | 0.00 | 0.13 | 0.00 | 80 | 1011.4 |
| 20260507000303 | 56 | 272 | 2.6 | 6.1 | 0.00 | 0.13 | 0.00 | 80 | 1011.5 |
| 20260507000205 | 56 | 270 | 2.6 | 6.1 | 0.00 | 0.13 | 0.00 | 80 | 1011.5 |
| 20260507000004 | 56 | 268 | 1.7 | 5.2 | 0.00 | 0.13 | 0.00 | 80 | 1011.5 |
| 20260506235903 | 56 | 268 | 1.7 | 5.2 | 0.00 | 0.13 | 0.00 | 79 | 1011.4 |
| 20260506235803 | 56 | 272 | 1.7 | 5.2 | 0.00 | 0.13 | 0.00 | 79 | 1011.4 |
| 20260506235703 | 56 | 275 | 0.9 | 3.5 | 0.00 | 0.13 | 0.00 | 79 | 1011.4 |
| 20260506235603 | 56 | 277 | 0.9 | 3.5 | 0.00 | 0.13 | 0.00 | 79 | 1011.4 |
| 20260506235503 | 56 | 286 | 0.9 | 3.5 | 0.00 | 0.13 | 0.00 | 79 | 1011.4 |
| 20260506235403 | 56 | 298 | 0.9 | 3.5 | 0.00 | 0.13 | 0.00 | 78 | 1011.4 |
| 20260506235306 | 56 | 304 | 0.9 | 3.5 | 0.00 | 0.13 | 0.00 | 78 | 1011.3 |
| 20260506235203 | 56 | 311 | 0.9 | 3.5 | 0.00 | 0.13 | 0.00 | 78 | 1011.3 |
| 20260506235103 | 56 | 318 | 0.9 | 3.5 | 0.00 | 0.13 | 0.00 | 78 | 1011.3 |
| 20260506235003 | 56 | 323 | 0.9 | 3.5 | 0.00 | 0.13 | 0.00 | 78 | 1011.3 |
| 20260506234903 | 56 | 329 | 0.9 | 3.5 | 0.00 | 0.13 | 0.00 | 78 | 1011.3 |
| 20260506234803 | 56 | 334 | 0.9 | 3.5 | 0.00 | 0.13 | 0.00 | 78 | 1011.2 |
| 20260506234703 | 56 | 339 | 1.7 | 3.5 | 0.00 | 0.13 | 0.00 | 78 | 1011.2 |
| 20260506234603 | 56 | 343 | 1.7 | 3.5 | 0.00 | 0.13 | 0.00 | 78 | 1011.2 |
| 20260506234503 | 56 | 348 | 1.7 | 3.5 | 0.00 | 0.13 | 0.00 | 78 | 1011.2 |
| 20260506234403 | 56 | 351 | 1.7 | 3.5 | 0.00 | 0.13 | 0.00 | 78 | 1011.2 |
| 20260506234303 | 56 | 353 | 1.7 | 3.5 | 0.00 | 0.13 | 0.00 | 78 | 1011.2 |
| 20260506234203 | 56 | 356 | 1.7 | 3.5 | 0.00 | 0.13 | 0.00 | 77 | 1011.2 |
| 20260506234103 | 56 | 354 | 1.7 | 3.5 | 0.00 | 0.13 | 0.00 | 78 | 1011.2 |
| 20260506234003 | 56 | 354 | 1.7 | 3.5 | 0.00 | 0.13 | 0.00 | 77 | 1011.2 |
| 20260506233903 | 56 | 354 | 1.7 | 3.5 | 0.00 | 0.13 | 0.00 | 77 | 1011.2 |
| 20260506233803 | 56 | 354 | 1.7 | 3.5 | 0.00 | 0.13 | 0.00 | 77 | 1011.2 |
| 20260506233703 | 56 | 353 | 1.7 | 3.5 | 0.00 | 0.13 | 0.00 | 78 | 1011.2 |
| 20260506233603 | 56 | 354 | 1.7 | 3.5 | 0.00 | 0.13 | 0.00 | 78 | 1011.2 |
| 20260506233503 | 56 | 354 | 1.7 | 3.5 | 0.00 | 0.13 | 0.00 | 78 | 1011.2 |
| 20260506233403 | 56 | 355 | 1.7 | 3.5 | 0.00 | 0.13 | 0.00 | 78 | 1011.2 |
| 20260506233303 | 56 | 359 | 1.7 | 5.2 | 0.00 | 0.13 | 0.00 | 78 | 1011.1 |
| 20260506233203 | 56 | 360 | 1.7 | 5.2 | 0.00 | 0.13 | 0.00 | 78 | 1011.1 |
| 20260506233103 | 56 | 2 | 1.7 | 5.2 | 0.00 | 0.13 | 0.00 | 78 | 1011.1 |
| 20260506233003 | 56 | 2 | 1.7 | 5.2 | 0.00 | 0.13 | 0.00 | 78 | 1011.1 |
| 20260506232903 | 56 | 4 | 1.7 | 5.2 | 0.00 | 0.13 | 0.00 | 78 | 1011.1 |
| 20260506232803 | 56 | 4 | 1.7 | 5.2 | 0.00 | 0.13 | 0.00 | 78 | 1011.1 |
| 20260506232703 | 56 | 6 | 1.7 | 5.2 | 0.00 | 0.13 | 0.00 | 78 | 1011.0 |
| 20260506232603 | 56 | 9 | 1.7 | 5.2 | 0.00 | 0.13 | 0.00 | 78 | 1011.0 |
| 20260506232503 | 56 | 11 | 1.7 | 5.2 | 0.00 | 0.13 | 0.00 | 78 | 1011.1 |
| 20260506232403 | 56 | 14 | 0.9 | 5.2 | 0.00 | 0.13 | 0.00 | 78 | 1011.1 |
| 20260506232306 | 56 | 15 | 0.9 | 3.5 | 0.00 | 0.13 | 0.00 | 78 | 1011.0 |
| 20260506232203 | 56 | 18 | 0.9 | 3.5 | 0.00 | 0.13 | 0.00 | 78 | 1011.0 |
| 20260506232103 | 56 | 22 | 0.9 | 2.6 | 0.00 | 0.13 | 0.00 | 78 | 1011.0 |
| 20260506232003 | 56 | 21 | 0.9 | 2.6 | 0.00 | 0.13 | 0.00 | 78 | 1011.1 |
| 20260506231903 | 56 | 18 | 0.9 | 2.6 | 0.00 | 0.13 | 0.00 | 78 | 1011.1 |
| 20260506231803 | 56 | 19 | 0.9 | 2.6 | 0.00 | 0.13 | 0.00 | 78 | 1011.1 |
| 20260506231703 | 56 | 19 | 0.9 | 3.5 | 0.00 | 0.13 | 0.00 | 79 | 1011.1 |
| 20260506231603 | 56 | 17 | 1.7 | 3.5 | 0.00 | 0.13 | 0.00 | 78 | 1011.1 |
| 20260506231504 | 56 | 20 | 1.7 | 6.1 | 0.00 | 0.13 | 0.00 | 78 | 1011.1 |
| 20260506231403 | 56 | 20 | 1.7 | 6.1 | 0.00 | 0.13 | 0.00 | 78 | 1011.1 |
| 20260506231303 | 56 | 20 | 1.7 | 7.0 | 0.00 | 0.13 | 0.00 | 78 | 1011.1 |
| 20260506231203 | 56 | 20 | 2.6 | 7.0 | 0.00 | 0.13 | 0.00 | 78 | 1011.0 |
| 20260506231103 | 56 | 19 | 2.6 | 7.0 | 0.00 | 0.13 | 0.00 | 78 | 1011.0 |
| 20260506231003 | 56 | 17 | 3.5 | 7.8 | 0.00 | 0.13 | 0.00 | 78 | 1011.0 |
| 20260506230903 | 56 | 15 | 3.5 | 7.8 | 0.00 | 0.13 | 0.00 | 78 | 1010.9 |
| 20260506230803 | 56 | 13 | 3.5 | 7.8 | 0.00 | 0.13 | 0.00 | 78 | 1010.9 |
| 20260506230703 | 56 | 11 | 3.5 | 7.8 | 0.00 | 0.13 | 0.00 | 78 | 1010.9 |
| 20260506230603 | 56 | 11 | 3.5 | 7.8 | 0.00 | 0.13 | 0.00 | 78 | 1010.9 |
| 20260506230503 | 56 | 10 | 3.5 | 7.8 | 0.00 | 0.13 | 0.00 | 78 | 1010.9 |
| 20260506230403 | 56 | 9 | 3.5 | 7.8 | 0.00 | 0.13 | 0.00 | 78 | 1010.9 |
| 20260506230303 | 56 | 8 | 3.5 | 7.8 | 0.00 | 0.13 | 0.00 | 78 | 1010.9 |
| 20260506230203 | 56 | 8 | 3.5 | 7.8 | 0.00 | 0.13 | 0.00 | 78 | 1010.9 |
| 20260506230103 | 56 | 7 | 2.6 | 7.8 | 0.00 | 0.13 | 0.00 | 78 | 1010.9 |
| 20260506230003 | 56 | 7 | 2.6 | 7.0 | 0.00 | 0.13 | 0.00 | 78 | 1010.9 |
| 20260506225903 | 56 | 10 | 2.6 | 7.0 | 0.00 | 0.13 | 0.00 | 78 | 1010.9 |
| 20260506225803 | 56 | 11 | 2.6 | 7.0 | 0.00 | 0.13 | 0.00 | 78 | 1010.9 |
| 20260506225703 | 56 | 12 | 2.6 | 7.0 | 0.00 | 0.13 | 0.00 | 78 | 1010.9 |
| 20260506225603 | 56 | 13 | 2.6 | 5.2 | 0.00 | 0.13 | 0.00 | 79 | 1010.9 |
| 20260506225503 | 56 | 14 | 1.7 | 4.3 | 0.00 | 0.13 | 0.00 | 79 | 1010.9 |
| 20260506225403 | 56 | 16 | 1.7 | 4.3 | 0.00 | 0.13 | 0.00 | 79 | 1010.8 |
| 20260506225305 | 56 | 16 | 1.7 | 4.3 | 0.00 | 0.13 | 0.00 | 79 | 1010.8 |
| 20260506225203 | 56 | 18 | 1.7 | 4.3 | 0.00 | 0.13 | 0.00 | 79 | 1010.8 |
| 20260506225104 | 56 | 19 | 2.6 | 5.2 | 0.00 | 0.13 | 0.00 | 78 | 1010.8 |
| 20260506225003 | 56 | 19 | 2.6 | 5.2 | 0.00 | 0.13 | 0.00 | 78 | 1010.8 |
| 20260506224904 | 56 | 16 | 2.6 | 5.2 | 0.00 | 0.13 | 0.00 | 78 | 1010.8 |
| 20260506224804 | 56 | 15 | 2.6 | 5.2 | 0.00 | 0.13 | 0.00 | 78 | 1010.8 |
| 20260506224703 | 56 | 12 | 3.5 | 7.8 | 0.00 | 0.13 | 0.00 | 78 | 1010.8 |
| 20260506224603 | 56 | 10 | 3.5 | 7.8 | 0.00 | 0.13 | 0.00 | 78 | 1010.8 |